<?xml version="1.0" encoding="UTF-8" standalone="no" ?>
<gpx xmlns="http://www.topografix.com/GPX/1/1" xmlns:xsi="http://www.w3.org/2001/XMLSchema-instance" xsi:schemaLocation="http://www.topografix.com/GPX/1/1 http://www.topografix.com/GPX/1/1/gpx.xsd" version="1.1" creator="VisuGPX - https://www.visugpx.com">
  <metadata>
    <name>GY3 CURRENT TRACK: 11 OCT 2021</name>
    <desc><![CDATA[Boucle au départ de Veigy GY version 3 HW]]></desc>
  </metadata>
  <trk>
    <name><![CDATA[CURRENT TRACK: 10 OCT 2021 12:33]]></name>
    <trkseg>
      <trkpt lat="46.26807" lon="6.25781">
        <ele>477.67</ele>
        <time>2021-10-10T12:33:50Z</time>
      </trkpt>
      <trkpt lat="46.26807" lon="6.25781">
        <ele>477.67</ele>
        <time>2021-10-10T12:34:12Z</time>
      </trkpt>
      <trkpt lat="46.26799" lon="6.25779">
        <ele>477.67</ele>
        <time>2021-10-10T12:34:42Z</time>
      </trkpt>
      <trkpt lat="46.26799" lon="6.25779">
        <ele>477.67</ele>
        <time>2021-10-10T12:34:49Z</time>
      </trkpt>
      <trkpt lat="46.26812" lon="6.25795">
        <ele>477.67</ele>
        <time>2021-10-10T12:36:19Z</time>
      </trkpt>
      <trkpt lat="46.26814" lon="6.25791">
        <ele>477.67</ele>
        <time>2021-10-10T12:36:27Z</time>
      </trkpt>
      <trkpt lat="46.26812" lon="6.25791">
        <ele>477.67</ele>
        <time>2021-10-10T12:36:44Z</time>
      </trkpt>
      <trkpt lat="46.26817" lon="6.258">
        <ele>477.67</ele>
        <time>2021-10-10T12:37:11Z</time>
      </trkpt>
      <trkpt lat="46.26805" lon="6.25777">
        <ele>477.67</ele>
        <time>2021-10-10T12:37:36Z</time>
      </trkpt>
      <trkpt lat="46.26817" lon="6.25791">
        <ele>477.67</ele>
        <time>2021-10-10T12:38:00Z</time>
      </trkpt>
      <trkpt lat="46.26798" lon="6.25769">
        <ele>477.67</ele>
        <time>2021-10-10T12:39:05Z</time>
      </trkpt>
      <trkpt lat="46.26815" lon="6.25777">
        <ele>477.67</ele>
        <time>2021-10-10T12:39:48Z</time>
      </trkpt>
      <trkpt lat="46.2682" lon="6.25784">
        <ele>477.67</ele>
        <time>2021-10-10T12:40:01Z</time>
      </trkpt>
      <trkpt lat="46.26816" lon="6.25782">
        <ele>477.67</ele>
        <time>2021-10-10T12:40:13Z</time>
      </trkpt>
      <trkpt lat="46.26827" lon="6.25773">
        <ele>477.67</ele>
        <time>2021-10-10T12:47:52Z</time>
      </trkpt>
      <trkpt lat="46.26827" lon="6.25773">
        <ele>477.67</ele>
        <time>2021-10-10T12:48:11Z</time>
      </trkpt>
      <trkpt lat="46.26815" lon="6.25778">
        <ele>477.67</ele>
        <time>2021-10-10T12:54:09Z</time>
      </trkpt>
      <trkpt lat="46.26811" lon="6.2579">
        <ele>477.67</ele>
        <time>2021-10-10T12:56:14Z</time>
      </trkpt>
      <trkpt lat="46.26814" lon="6.2578">
        <ele>477.67</ele>
        <time>2021-10-10T12:56:45Z</time>
      </trkpt>
      <trkpt lat="46.26826" lon="6.25765">
        <ele>477.67</ele>
        <time>2021-10-10T12:56:56Z</time>
      </trkpt>
      <trkpt lat="46.26834" lon="6.25757">
        <ele>477.67</ele>
        <time>2021-10-10T12:57:03Z</time>
      </trkpt>
      <trkpt lat="46.26833" lon="6.2575">
        <ele>477.67</ele>
        <time>2021-10-10T12:57:13Z</time>
      </trkpt>
      <trkpt lat="46.26829" lon="6.25758">
        <ele>477.67</ele>
        <time>2021-10-10T12:57:22Z</time>
      </trkpt>
      <trkpt lat="46.26824" lon="6.25756">
        <ele>477.67</ele>
        <time>2021-10-10T12:57:34Z</time>
      </trkpt>
      <trkpt lat="46.2683" lon="6.25758">
        <ele>477.67</ele>
        <time>2021-10-10T12:57:51Z</time>
      </trkpt>
      <trkpt lat="46.26833" lon="6.25751">
        <ele>477.67</ele>
        <time>2021-10-10T12:58:08Z</time>
      </trkpt>
      <trkpt lat="46.26833" lon="6.2575">
        <ele>477.67</ele>
        <time>2021-10-10T12:58:26Z</time>
      </trkpt>
      <trkpt lat="46.26822" lon="6.25749">
        <ele>477.67</ele>
        <time>2021-10-10T12:59:53Z</time>
      </trkpt>
      <trkpt lat="46.26812" lon="6.25755">
        <ele>477.67</ele>
        <time>2021-10-10T13:00:00Z</time>
      </trkpt>
      <trkpt lat="46.26799" lon="6.25761">
        <ele>477.67</ele>
        <time>2021-10-10T13:00:09Z</time>
      </trkpt>
      <trkpt lat="46.26799" lon="6.2576">
        <ele>477.67</ele>
        <time>2021-10-10T13:00:11Z</time>
      </trkpt>
      <trkpt lat="46.26819" lon="6.25761">
        <ele>477.67</ele>
        <time>2021-10-10T13:00:47Z</time>
      </trkpt>
      <trkpt lat="46.26819" lon="6.25761">
        <ele>477.67</ele>
        <time>2021-10-10T13:00:55Z</time>
      </trkpt>
      <trkpt lat="46.26818" lon="6.25761">
        <ele>477.67</ele>
        <time>2021-10-10T13:01:37Z</time>
      </trkpt>
      <trkpt lat="46.26818" lon="6.25761">
        <ele>477.67</ele>
        <time>2021-10-10T13:01:47Z</time>
      </trkpt>
      <trkpt lat="46.26819" lon="6.25761">
        <ele>477.67</ele>
        <time>2021-10-10T13:02:13Z</time>
      </trkpt>
      <trkpt lat="46.26819" lon="6.25761">
        <ele>477.67</ele>
        <time>2021-10-10T13:02:25Z</time>
      </trkpt>
      <trkpt lat="46.26819" lon="6.25761">
        <ele>477.67</ele>
        <time>2021-10-10T13:03:01Z</time>
      </trkpt>
      <trkpt lat="46.26805" lon="6.25806">
        <ele>477.67</ele>
        <time>2021-10-10T13:07:31Z</time>
      </trkpt>
      <trkpt lat="46.26816" lon="6.2579">
        <ele>477.67</ele>
        <time>2021-10-10T13:11:39Z</time>
      </trkpt>
      <trkpt lat="46.26839" lon="6.25782">
        <ele>477.67</ele>
        <time>2021-10-10T13:11:57Z</time>
      </trkpt>
      <trkpt lat="46.26825" lon="6.25775">
        <ele>477.67</ele>
        <time>2021-10-10T13:12:14Z</time>
      </trkpt>
      <trkpt lat="46.26825" lon="6.25771">
        <ele>477.67</ele>
        <time>2021-10-10T13:12:18Z</time>
      </trkpt>
      <trkpt lat="46.26825" lon="6.25771">
        <ele>477.67</ele>
        <time>2021-10-10T13:12:44Z</time>
      </trkpt>
      <trkpt lat="46.26821" lon="6.25794">
        <ele>477.67</ele>
        <time>2021-10-10T14:10:41Z</time>
      </trkpt>
      <trkpt lat="46.26835" lon="6.25801">
        <ele>477.67</ele>
        <time>2021-10-10T14:11:08Z</time>
      </trkpt>
      <trkpt lat="46.26783" lon="6.25768">
        <ele>477.67</ele>
        <time>2021-10-10T14:11:35Z</time>
      </trkpt>
      <trkpt lat="46.26768" lon="6.25781">
        <ele>477.67</ele>
        <time>2021-10-10T14:12:17Z</time>
      </trkpt>
      <trkpt lat="46.26785" lon="6.25809">
        <ele>477.67</ele>
        <time>2021-10-10T14:15:35Z</time>
      </trkpt>
      <trkpt lat="46.26785" lon="6.25797">
        <ele>477.67</ele>
        <time>2021-10-10T14:17:41Z</time>
      </trkpt>
      <trkpt lat="46.26798" lon="6.25787">
        <ele>477.67</ele>
        <time>2021-10-10T14:18:51Z</time>
      </trkpt>
      <trkpt lat="46.26765" lon="6.25752">
        <ele>477.67</ele>
        <time>2021-10-10T14:19:58Z</time>
      </trkpt>
      <trkpt lat="46.26797" lon="6.25805">
        <ele>477.67</ele>
        <time>2021-10-10T14:21:00Z</time>
      </trkpt>
      <trkpt lat="46.26814" lon="6.25795">
        <ele>477.67</ele>
        <time>2021-10-10T14:21:57Z</time>
      </trkpt>
      <trkpt lat="46.26869" lon="6.25694">
        <ele>477.67</ele>
        <time>2021-10-10T14:23:39Z</time>
      </trkpt>
      <trkpt lat="46.2687" lon="6.25703">
        <ele>477.67</ele>
        <time>2021-10-10T14:23:51Z</time>
      </trkpt>
      <trkpt lat="46.26868" lon="6.25705">
        <ele>477.67</ele>
        <time>2021-10-10T14:23:55Z</time>
      </trkpt>
      <trkpt lat="46.26862" lon="6.25709">
        <ele>477.67</ele>
        <time>2021-10-10T14:24:01Z</time>
      </trkpt>
      <trkpt lat="46.26854" lon="6.25717">
        <ele>477.67</ele>
        <time>2021-10-10T14:24:09Z</time>
      </trkpt>
      <trkpt lat="46.26854" lon="6.25719">
        <ele>477.67</ele>
        <time>2021-10-10T14:24:12Z</time>
      </trkpt>
      <trkpt lat="46.26853" lon="6.2572">
        <ele>477.67</ele>
        <time>2021-10-10T14:24:16Z</time>
      </trkpt>
      <trkpt lat="46.26857" lon="6.25725">
        <ele>477.67</ele>
        <time>2021-10-10T14:24:27Z</time>
      </trkpt>
      <trkpt lat="46.26859" lon="6.25731">
        <ele>477.67</ele>
        <time>2021-10-10T14:25:56Z</time>
      </trkpt>
      <trkpt lat="46.26859" lon="6.25732">
        <ele>477.67</ele>
        <time>2021-10-10T14:25:58Z</time>
      </trkpt>
      <trkpt lat="46.26859" lon="6.25731">
        <ele>477.67</ele>
        <time>2021-10-10T14:26:01Z</time>
      </trkpt>
      <trkpt lat="46.26859" lon="6.25731">
        <ele>477.67</ele>
        <time>2021-10-10T14:26:21Z</time>
      </trkpt>
      <trkpt lat="46.26859" lon="6.25731">
        <ele>477.67</ele>
        <time>2021-10-10T14:26:23Z</time>
      </trkpt>
      <trkpt lat="46.26824" lon="6.25786">
        <ele>477.67</ele>
        <time>2021-10-10T14:27:26Z</time>
      </trkpt>
      <trkpt lat="46.26823" lon="6.25802">
        <ele>477.67</ele>
        <time>2021-10-10T14:27:51Z</time>
      </trkpt>
      <trkpt lat="46.26819" lon="6.25787">
        <ele>477.67</ele>
        <time>2021-10-10T14:28:16Z</time>
      </trkpt>
      <trkpt lat="46.26814" lon="6.25786">
        <ele>477.67</ele>
        <time>2021-10-10T14:28:27Z</time>
      </trkpt>
      <trkpt lat="46.26811" lon="6.25786">
        <ele>477.67</ele>
        <time>2021-10-10T14:28:31Z</time>
      </trkpt>
      <trkpt lat="46.26809" lon="6.25783">
        <ele>477.67</ele>
        <time>2021-10-10T14:28:46Z</time>
      </trkpt>
      <trkpt lat="46.26809" lon="6.25783">
        <ele>477.67</ele>
        <time>2021-10-10T14:28:51Z</time>
      </trkpt>
      <trkpt lat="46.26809" lon="6.25783">
        <ele>477.67</ele>
        <time>2021-10-10T14:29:05Z</time>
      </trkpt>
      <trkpt lat="46.2681" lon="6.25783">
        <ele>477.67</ele>
        <time>2021-10-10T14:29:20Z</time>
      </trkpt>
      <trkpt lat="46.26815" lon="6.25786">
        <ele>477.67</ele>
        <time>2021-10-10T14:30:51Z</time>
      </trkpt>
      <trkpt lat="46.26818" lon="6.25764">
        <ele>477.67</ele>
        <time>2021-10-10T14:31:35Z</time>
      </trkpt>
      <trkpt lat="46.26818" lon="6.25747">
        <ele>477.67</ele>
        <time>2021-10-10T14:32:01Z</time>
      </trkpt>
      <trkpt lat="46.26819" lon="6.25746">
        <ele>477.67</ele>
        <time>2021-10-10T14:32:29Z</time>
      </trkpt>
      <trkpt lat="46.26797" lon="6.25807">
        <ele>412.6</ele>
        <time>2021-10-11T08:13:39Z</time>
      </trkpt>
      <trkpt lat="46.26821" lon="6.25784">
        <ele>462.13</ele>
        <time>2021-10-11T08:24:38Z</time>
      </trkpt>
      <trkpt lat="46.26834" lon="6.25763">
        <ele>462.13</ele>
        <time>2021-10-11T08:25:14Z</time>
      </trkpt>
      <trkpt lat="46.26843" lon="6.25741">
        <ele>462.13</ele>
        <time>2021-10-11T08:25:48Z</time>
      </trkpt>
      <trkpt lat="46.26851" lon="6.25727">
        <ele>462.13</ele>
        <time>2021-10-11T08:25:57Z</time>
      </trkpt>
      <trkpt lat="46.26844" lon="6.25734">
        <ele>462.13</ele>
        <time>2021-10-11T08:26:08Z</time>
      </trkpt>
      <trkpt lat="46.26845" lon="6.25765">
        <ele>462.13</ele>
        <time>2021-10-11T08:26:15Z</time>
      </trkpt>
      <trkpt lat="46.26835" lon="6.25789">
        <ele>462.13</ele>
        <time>2021-10-11T08:26:33Z</time>
      </trkpt>
      <trkpt lat="46.26825" lon="6.2581">
        <ele>462.13</ele>
        <time>2021-10-11T08:26:42Z</time>
      </trkpt>
      <trkpt lat="46.26807" lon="6.25804">
        <ele>462.13</ele>
        <time>2021-10-11T08:26:48Z</time>
      </trkpt>
      <trkpt lat="46.2679" lon="6.25793">
        <ele>462.13</ele>
        <time>2021-10-11T08:26:54Z</time>
      </trkpt>
      <trkpt lat="46.26773" lon="6.25782">
        <ele>462.13</ele>
        <time>2021-10-11T08:26:58Z</time>
      </trkpt>
      <trkpt lat="46.26754" lon="6.2577">
        <ele>462.13</ele>
        <time>2021-10-11T08:27:02Z</time>
      </trkpt>
      <trkpt lat="46.26736" lon="6.25758">
        <ele>462.13</ele>
        <time>2021-10-11T08:27:07Z</time>
      </trkpt>
      <trkpt lat="46.26717" lon="6.25744">
        <ele>462.13</ele>
        <time>2021-10-11T08:27:14Z</time>
      </trkpt>
      <trkpt lat="46.26701" lon="6.25732">
        <ele>462.13</ele>
        <time>2021-10-11T08:27:22Z</time>
      </trkpt>
      <trkpt lat="46.26686" lon="6.25722">
        <ele>462.13</ele>
        <time>2021-10-11T08:27:32Z</time>
      </trkpt>
      <trkpt lat="46.26665" lon="6.25718">
        <ele>462.13</ele>
        <time>2021-10-11T08:27:37Z</time>
      </trkpt>
      <trkpt lat="46.26643" lon="6.25706">
        <ele>462.13</ele>
        <time>2021-10-11T08:27:42Z</time>
      </trkpt>
      <trkpt lat="46.26623" lon="6.25695">
        <ele>462.13</ele>
        <time>2021-10-11T08:27:47Z</time>
      </trkpt>
      <trkpt lat="46.26605" lon="6.25702">
        <ele>462.13</ele>
        <time>2021-10-11T08:27:52Z</time>
      </trkpt>
      <trkpt lat="46.2659" lon="6.25693">
        <ele>462.13</ele>
        <time>2021-10-11T08:28:02Z</time>
      </trkpt>
      <trkpt lat="46.26597" lon="6.25711">
        <ele>462.13</ele>
        <time>2021-10-11T08:28:18Z</time>
      </trkpt>
      <trkpt lat="46.26579" lon="6.25709">
        <ele>462.13</ele>
        <time>2021-10-11T08:28:41Z</time>
      </trkpt>
      <trkpt lat="46.26561" lon="6.257">
        <ele>462.13</ele>
        <time>2021-10-11T08:28:47Z</time>
      </trkpt>
      <trkpt lat="46.26541" lon="6.25692">
        <ele>462.13</ele>
        <time>2021-10-11T08:28:53Z</time>
      </trkpt>
      <trkpt lat="46.26522" lon="6.25682">
        <ele>466.48</ele>
        <time>2021-10-11T08:28:59Z</time>
      </trkpt>
      <trkpt lat="46.26508" lon="6.25691">
        <ele>466.95</ele>
        <time>2021-10-11T08:29:07Z</time>
      </trkpt>
      <trkpt lat="46.26503" lon="6.25719">
        <ele>467.52</ele>
        <time>2021-10-11T08:29:13Z</time>
      </trkpt>
      <trkpt lat="46.26498" lon="6.25746">
        <ele>467.91</ele>
        <time>2021-10-11T08:29:20Z</time>
      </trkpt>
      <trkpt lat="46.26481" lon="6.25748">
        <ele>468.29</ele>
        <time>2021-10-11T08:29:26Z</time>
      </trkpt>
      <trkpt lat="46.26463" lon="6.25735">
        <ele>468.51</ele>
        <time>2021-10-11T08:29:32Z</time>
      </trkpt>
      <trkpt lat="46.26446" lon="6.25718">
        <ele>468.74</ele>
        <time>2021-10-11T08:29:39Z</time>
      </trkpt>
      <trkpt lat="46.26426" lon="6.25705">
        <ele>468.82</ele>
        <time>2021-10-11T08:29:45Z</time>
      </trkpt>
      <trkpt lat="46.26408" lon="6.25695">
        <ele>468.98</ele>
        <time>2021-10-11T08:29:50Z</time>
      </trkpt>
      <trkpt lat="46.26388" lon="6.25684">
        <ele>469.2</ele>
        <time>2021-10-11T08:29:55Z</time>
      </trkpt>
      <trkpt lat="46.2637" lon="6.25677">
        <ele>469.36</ele>
        <time>2021-10-11T08:30:00Z</time>
      </trkpt>
      <trkpt lat="46.26351" lon="6.25672">
        <ele>469.64</ele>
        <time>2021-10-11T08:30:06Z</time>
      </trkpt>
      <trkpt lat="46.26333" lon="6.25665">
        <ele>469.8</ele>
        <time>2021-10-11T08:30:14Z</time>
      </trkpt>
      <trkpt lat="46.26314" lon="6.25671">
        <ele>470</ele>
        <time>2021-10-11T08:30:21Z</time>
      </trkpt>
      <trkpt lat="46.26295" lon="6.25678">
        <ele>470.38</ele>
        <time>2021-10-11T08:30:27Z</time>
      </trkpt>
      <trkpt lat="46.26276" lon="6.25685">
        <ele>470.8</ele>
        <time>2021-10-11T08:30:33Z</time>
      </trkpt>
      <trkpt lat="46.26256" lon="6.25695">
        <ele>470.97</ele>
        <time>2021-10-11T08:30:39Z</time>
      </trkpt>
      <trkpt lat="46.2624" lon="6.25709">
        <ele>471.22</ele>
        <time>2021-10-11T08:30:45Z</time>
      </trkpt>
      <trkpt lat="46.26227" lon="6.25727">
        <ele>471.87</ele>
        <time>2021-10-11T08:31:03Z</time>
      </trkpt>
      <trkpt lat="46.26228" lon="6.25732">
        <ele>472.19</ele>
        <time>2021-10-11T08:31:14Z</time>
      </trkpt>
      <trkpt lat="46.26229" lon="6.25724">
        <ele>472.27</ele>
        <time>2021-10-11T08:31:25Z</time>
      </trkpt>
      <trkpt lat="46.26218" lon="6.25749">
        <ele>472.52</ele>
        <time>2021-10-11T08:31:32Z</time>
      </trkpt>
      <trkpt lat="46.26204" lon="6.25774">
        <ele>472.73</ele>
        <time>2021-10-11T08:31:38Z</time>
      </trkpt>
      <trkpt lat="46.2619" lon="6.25793">
        <ele>472.92</ele>
        <time>2021-10-11T08:31:43Z</time>
      </trkpt>
      <trkpt lat="46.26178" lon="6.25813">
        <ele>473.26</ele>
        <time>2021-10-11T08:31:48Z</time>
      </trkpt>
      <trkpt lat="46.26165" lon="6.25836">
        <ele>473.96</ele>
        <time>2021-10-11T08:31:54Z</time>
      </trkpt>
      <trkpt lat="46.26152" lon="6.25858">
        <ele>474.57</ele>
        <time>2021-10-11T08:32:00Z</time>
      </trkpt>
      <trkpt lat="46.2614" lon="6.2588">
        <ele>475.3</ele>
        <time>2021-10-11T08:32:06Z</time>
      </trkpt>
      <trkpt lat="46.26129" lon="6.25902">
        <ele>476.13</ele>
        <time>2021-10-11T08:32:16Z</time>
      </trkpt>
      <trkpt lat="46.26116" lon="6.25923">
        <ele>477.24</ele>
        <time>2021-10-11T08:32:25Z</time>
      </trkpt>
      <trkpt lat="46.26102" lon="6.25943">
        <ele>477.33</ele>
        <time>2021-10-11T08:32:32Z</time>
      </trkpt>
      <trkpt lat="46.2609" lon="6.25965">
        <ele>477.76</ele>
        <time>2021-10-11T08:32:38Z</time>
      </trkpt>
      <trkpt lat="46.2608" lon="6.25989">
        <ele>478.32</ele>
        <time>2021-10-11T08:32:46Z</time>
      </trkpt>
      <trkpt lat="46.2607" lon="6.26012">
        <ele>478.65</ele>
        <time>2021-10-11T08:32:52Z</time>
      </trkpt>
      <trkpt lat="46.2606" lon="6.26036">
        <ele>479.31</ele>
        <time>2021-10-11T08:33:25Z</time>
      </trkpt>
      <trkpt lat="46.26051" lon="6.26062">
        <ele>479.56</ele>
        <time>2021-10-11T08:33:32Z</time>
      </trkpt>
      <trkpt lat="46.26043" lon="6.26087">
        <ele>480.07</ele>
        <time>2021-10-11T08:33:38Z</time>
      </trkpt>
      <trkpt lat="46.26033" lon="6.26114">
        <ele>480.51</ele>
        <time>2021-10-11T08:33:44Z</time>
      </trkpt>
      <trkpt lat="46.26025" lon="6.2614">
        <ele>481.11</ele>
        <time>2021-10-11T08:33:49Z</time>
      </trkpt>
      <trkpt lat="46.26017" lon="6.26164">
        <ele>481.65</ele>
        <time>2021-10-11T08:33:55Z</time>
      </trkpt>
      <trkpt lat="46.26012" lon="6.26194">
        <ele>481.88</ele>
        <time>2021-10-11T08:34:01Z</time>
      </trkpt>
      <trkpt lat="46.26006" lon="6.26217">
        <ele>481.92</ele>
        <time>2021-10-11T08:34:07Z</time>
      </trkpt>
      <trkpt lat="46.25989" lon="6.26207">
        <ele>481.82</ele>
        <time>2021-10-11T08:34:14Z</time>
      </trkpt>
      <trkpt lat="46.25972" lon="6.26187">
        <ele>482.7</ele>
        <time>2021-10-11T08:34:20Z</time>
      </trkpt>
      <trkpt lat="46.25957" lon="6.26171">
        <ele>483.54</ele>
        <time>2021-10-11T08:34:24Z</time>
      </trkpt>
      <trkpt lat="46.25941" lon="6.26152">
        <ele>484.26</ele>
        <time>2021-10-11T08:34:28Z</time>
      </trkpt>
      <trkpt lat="46.25926" lon="6.26134">
        <ele>484.75</ele>
        <time>2021-10-11T08:34:33Z</time>
      </trkpt>
      <trkpt lat="46.25911" lon="6.26116">
        <ele>484.96</ele>
        <time>2021-10-11T08:34:39Z</time>
      </trkpt>
      <trkpt lat="46.25897" lon="6.26099">
        <ele>485.11</ele>
        <time>2021-10-11T08:34:44Z</time>
      </trkpt>
      <trkpt lat="46.25881" lon="6.2608">
        <ele>485.34</ele>
        <time>2021-10-11T08:34:50Z</time>
      </trkpt>
      <trkpt lat="46.25882" lon="6.26054">
        <ele>485.27</ele>
        <time>2021-10-11T08:34:56Z</time>
      </trkpt>
      <trkpt lat="46.25895" lon="6.2603">
        <ele>484.74</ele>
        <time>2021-10-11T08:35:03Z</time>
      </trkpt>
      <trkpt lat="46.25909" lon="6.26004">
        <ele>484.49</ele>
        <time>2021-10-11T08:35:08Z</time>
      </trkpt>
      <trkpt lat="46.25923" lon="6.25982">
        <ele>484.31</ele>
        <time>2021-10-11T08:35:12Z</time>
      </trkpt>
      <trkpt lat="46.25935" lon="6.25962">
        <ele>483.83</ele>
        <time>2021-10-11T08:35:16Z</time>
      </trkpt>
      <trkpt lat="46.25948" lon="6.2594">
        <ele>483.16</ele>
        <time>2021-10-11T08:35:21Z</time>
      </trkpt>
      <trkpt lat="46.2596" lon="6.25916">
        <ele>482.9</ele>
        <time>2021-10-11T08:35:27Z</time>
      </trkpt>
      <trkpt lat="46.25949" lon="6.25897">
        <ele>482.28</ele>
        <time>2021-10-11T08:35:34Z</time>
      </trkpt>
      <trkpt lat="46.25932" lon="6.2588">
        <ele>481.97</ele>
        <time>2021-10-11T08:35:39Z</time>
      </trkpt>
      <trkpt lat="46.25914" lon="6.25863">
        <ele>481.92</ele>
        <time>2021-10-11T08:35:44Z</time>
      </trkpt>
      <trkpt lat="46.25895" lon="6.25846">
        <ele>481.86</ele>
        <time>2021-10-11T08:35:49Z</time>
      </trkpt>
      <trkpt lat="46.25879" lon="6.25831">
        <ele>481.84</ele>
        <time>2021-10-11T08:35:53Z</time>
      </trkpt>
      <trkpt lat="46.25862" lon="6.25815">
        <ele>481.61</ele>
        <time>2021-10-11T08:35:59Z</time>
      </trkpt>
      <trkpt lat="46.25845" lon="6.258">
        <ele>481.57</ele>
        <time>2021-10-11T08:36:05Z</time>
      </trkpt>
      <trkpt lat="46.25829" lon="6.25787">
        <ele>481.65</ele>
        <time>2021-10-11T08:36:10Z</time>
      </trkpt>
      <trkpt lat="46.25809" lon="6.25777">
        <ele>482.1</ele>
        <time>2021-10-11T08:36:16Z</time>
      </trkpt>
      <trkpt lat="46.25791" lon="6.25769">
        <ele>482.5</ele>
        <time>2021-10-11T08:36:22Z</time>
      </trkpt>
      <trkpt lat="46.25772" lon="6.25764">
        <ele>482.69</ele>
        <time>2021-10-11T08:36:28Z</time>
      </trkpt>
      <trkpt lat="46.25753" lon="6.25766">
        <ele>483.15</ele>
        <time>2021-10-11T08:36:33Z</time>
      </trkpt>
      <trkpt lat="46.25732" lon="6.25775">
        <ele>483.76</ele>
        <time>2021-10-11T08:36:38Z</time>
      </trkpt>
      <trkpt lat="46.25713" lon="6.25779">
        <ele>484.3</ele>
        <time>2021-10-11T08:36:44Z</time>
      </trkpt>
      <trkpt lat="46.25692" lon="6.25783">
        <ele>485.23</ele>
        <time>2021-10-11T08:37:08Z</time>
      </trkpt>
      <trkpt lat="46.25671" lon="6.25786">
        <ele>485.55</ele>
        <time>2021-10-11T08:37:14Z</time>
      </trkpt>
      <trkpt lat="46.25651" lon="6.25789">
        <ele>485.69</ele>
        <time>2021-10-11T08:37:20Z</time>
      </trkpt>
      <trkpt lat="46.25631" lon="6.25791">
        <ele>486.04</ele>
        <time>2021-10-11T08:37:26Z</time>
      </trkpt>
      <trkpt lat="46.25612" lon="6.25792">
        <ele>486.65</ele>
        <time>2021-10-11T08:37:35Z</time>
      </trkpt>
      <trkpt lat="46.25593" lon="6.25799">
        <ele>487.23</ele>
        <time>2021-10-11T08:37:43Z</time>
      </trkpt>
      <trkpt lat="46.25576" lon="6.25807">
        <ele>487.65</ele>
        <time>2021-10-11T08:37:53Z</time>
      </trkpt>
      <trkpt lat="46.25577" lon="6.25796">
        <ele>487.71</ele>
        <time>2021-10-11T08:38:25Z</time>
      </trkpt>
      <trkpt lat="46.25568" lon="6.25772">
        <ele>487.64</ele>
        <time>2021-10-11T08:38:31Z</time>
      </trkpt>
      <trkpt lat="46.25555" lon="6.25749">
        <ele>487.69</ele>
        <time>2021-10-11T08:38:36Z</time>
      </trkpt>
      <trkpt lat="46.25543" lon="6.25727">
        <ele>487.93</ele>
        <time>2021-10-11T08:38:40Z</time>
      </trkpt>
      <trkpt lat="46.25531" lon="6.25705">
        <ele>488.08</ele>
        <time>2021-10-11T08:38:43Z</time>
      </trkpt>
      <trkpt lat="46.2552" lon="6.25684">
        <ele>488.06</ele>
        <time>2021-10-11T08:38:46Z</time>
      </trkpt>
      <trkpt lat="46.25507" lon="6.25655">
        <ele>487.72</ele>
        <time>2021-10-11T08:38:50Z</time>
      </trkpt>
      <trkpt lat="46.25494" lon="6.2563">
        <ele>487.36</ele>
        <time>2021-10-11T08:38:54Z</time>
      </trkpt>
      <trkpt lat="46.25483" lon="6.25607">
        <ele>486.98</ele>
        <time>2021-10-11T08:38:58Z</time>
      </trkpt>
      <trkpt lat="46.25469" lon="6.25593">
        <ele>486.67</ele>
        <time>2021-10-11T08:39:02Z</time>
      </trkpt>
      <trkpt lat="46.25455" lon="6.25616">
        <ele>486.48</ele>
        <time>2021-10-11T08:39:07Z</time>
      </trkpt>
      <trkpt lat="46.25441" lon="6.25639">
        <ele>486.53</ele>
        <time>2021-10-11T08:39:11Z</time>
      </trkpt>
      <trkpt lat="46.25425" lon="6.25665">
        <ele>486.56</ele>
        <time>2021-10-11T08:39:15Z</time>
      </trkpt>
      <trkpt lat="46.25411" lon="6.25683">
        <ele>486.64</ele>
        <time>2021-10-11T08:39:18Z</time>
      </trkpt>
      <trkpt lat="46.25395" lon="6.25703">
        <ele>486.84</ele>
        <time>2021-10-11T08:39:22Z</time>
      </trkpt>
      <trkpt lat="46.25379" lon="6.25722">
        <ele>487.45</ele>
        <time>2021-10-11T08:39:27Z</time>
      </trkpt>
      <trkpt lat="46.25365" lon="6.2574">
        <ele>488.36</ele>
        <time>2021-10-11T08:39:32Z</time>
      </trkpt>
      <trkpt lat="46.25349" lon="6.2576">
        <ele>489.61</ele>
        <time>2021-10-11T08:39:38Z</time>
      </trkpt>
      <trkpt lat="46.25332" lon="6.25778">
        <ele>490.6</ele>
        <time>2021-10-11T08:39:44Z</time>
      </trkpt>
      <trkpt lat="46.25315" lon="6.25797">
        <ele>491.58</ele>
        <time>2021-10-11T08:39:50Z</time>
      </trkpt>
      <trkpt lat="46.253" lon="6.25814">
        <ele>492.55</ele>
        <time>2021-10-11T08:39:56Z</time>
      </trkpt>
      <trkpt lat="46.2528" lon="6.2582">
        <ele>493.5</ele>
        <time>2021-10-11T08:40:02Z</time>
      </trkpt>
      <trkpt lat="46.25262" lon="6.25823">
        <ele>494.57</ele>
        <time>2021-10-11T08:40:08Z</time>
      </trkpt>
      <trkpt lat="46.2525" lon="6.25846">
        <ele>495.69</ele>
        <time>2021-10-11T08:40:14Z</time>
      </trkpt>
      <trkpt lat="46.25239" lon="6.25869">
        <ele>496.4</ele>
        <time>2021-10-11T08:40:23Z</time>
      </trkpt>
      <trkpt lat="46.25247" lon="6.25863">
        <ele>496.53</ele>
        <time>2021-10-11T08:40:31Z</time>
      </trkpt>
      <trkpt lat="46.25258" lon="6.25837">
        <ele>496.5</ele>
        <time>2021-10-11T08:40:36Z</time>
      </trkpt>
      <trkpt lat="46.25259" lon="6.2581">
        <ele>496.5</ele>
        <time>2021-10-11T08:40:41Z</time>
      </trkpt>
      <trkpt lat="46.25245" lon="6.25789">
        <ele>496.35</ele>
        <time>2021-10-11T08:40:46Z</time>
      </trkpt>
      <trkpt lat="46.2523" lon="6.25769">
        <ele>496.29</ele>
        <time>2021-10-11T08:40:50Z</time>
      </trkpt>
      <trkpt lat="46.25215" lon="6.25745">
        <ele>496.21</ele>
        <time>2021-10-11T08:40:54Z</time>
      </trkpt>
      <trkpt lat="46.25198" lon="6.25723">
        <ele>496.03</ele>
        <time>2021-10-11T08:40:58Z</time>
      </trkpt>
      <trkpt lat="46.25181" lon="6.25703">
        <ele>495.79</ele>
        <time>2021-10-11T08:41:02Z</time>
      </trkpt>
      <trkpt lat="46.25165" lon="6.25682">
        <ele>495.14</ele>
        <time>2021-10-11T08:41:06Z</time>
      </trkpt>
      <trkpt lat="46.25157" lon="6.25652">
        <ele>494.52</ele>
        <time>2021-10-11T08:41:10Z</time>
      </trkpt>
      <trkpt lat="46.25162" lon="6.25623">
        <ele>494.06</ele>
        <time>2021-10-11T08:41:14Z</time>
      </trkpt>
      <trkpt lat="46.25165" lon="6.25595">
        <ele>493.6</ele>
        <time>2021-10-11T08:41:18Z</time>
      </trkpt>
      <trkpt lat="46.25149" lon="6.25577">
        <ele>493.17</ele>
        <time>2021-10-11T08:41:22Z</time>
      </trkpt>
      <trkpt lat="46.25132" lon="6.25563">
        <ele>492.72</ele>
        <time>2021-10-11T08:41:26Z</time>
      </trkpt>
      <trkpt lat="46.25113" lon="6.25549">
        <ele>492.33</ele>
        <time>2021-10-11T08:41:31Z</time>
      </trkpt>
      <trkpt lat="46.25095" lon="6.25537">
        <ele>491.97</ele>
        <time>2021-10-11T08:41:36Z</time>
      </trkpt>
      <trkpt lat="46.25075" lon="6.25525">
        <ele>491.81</ele>
        <time>2021-10-11T08:41:41Z</time>
      </trkpt>
      <trkpt lat="46.25055" lon="6.25515">
        <ele>491.73</ele>
        <time>2021-10-11T08:41:45Z</time>
      </trkpt>
      <trkpt lat="46.25033" lon="6.25503">
        <ele>491.72</ele>
        <time>2021-10-11T08:41:49Z</time>
      </trkpt>
      <trkpt lat="46.25013" lon="6.25493">
        <ele>491.77</ele>
        <time>2021-10-11T08:41:53Z</time>
      </trkpt>
      <trkpt lat="46.24993" lon="6.25484">
        <ele>491.95</ele>
        <time>2021-10-11T08:41:58Z</time>
      </trkpt>
      <trkpt lat="46.24973" lon="6.25472">
        <ele>492.07</ele>
        <time>2021-10-11T08:42:04Z</time>
      </trkpt>
      <trkpt lat="46.24957" lon="6.25453">
        <ele>492.07</ele>
        <time>2021-10-11T08:42:09Z</time>
      </trkpt>
      <trkpt lat="46.24943" lon="6.25467">
        <ele>492.01</ele>
        <time>2021-10-11T08:42:15Z</time>
      </trkpt>
      <trkpt lat="46.24931" lon="6.25493">
        <ele>492.57</ele>
        <time>2021-10-11T08:42:21Z</time>
      </trkpt>
      <trkpt lat="46.24917" lon="6.25512">
        <ele>493.43</ele>
        <time>2021-10-11T08:42:26Z</time>
      </trkpt>
      <trkpt lat="46.249" lon="6.2553">
        <ele>494.05</ele>
        <time>2021-10-11T08:42:31Z</time>
      </trkpt>
      <trkpt lat="46.24884" lon="6.25548">
        <ele>494.73</ele>
        <time>2021-10-11T08:42:36Z</time>
      </trkpt>
      <trkpt lat="46.24867" lon="6.25564">
        <ele>495.36</ele>
        <time>2021-10-11T08:42:41Z</time>
      </trkpt>
      <trkpt lat="46.24852" lon="6.25581">
        <ele>496.19</ele>
        <time>2021-10-11T08:42:46Z</time>
      </trkpt>
      <trkpt lat="46.24836" lon="6.25598">
        <ele>497.29</ele>
        <time>2021-10-11T08:42:51Z</time>
      </trkpt>
      <trkpt lat="46.24821" lon="6.25618">
        <ele>498.33</ele>
        <time>2021-10-11T08:42:56Z</time>
      </trkpt>
      <trkpt lat="46.24807" lon="6.25635">
        <ele>499.26</ele>
        <time>2021-10-11T08:43:01Z</time>
      </trkpt>
      <trkpt lat="46.24794" lon="6.25655">
        <ele>500.02</ele>
        <time>2021-10-11T08:43:06Z</time>
      </trkpt>
      <trkpt lat="46.24781" lon="6.25676">
        <ele>500.96</ele>
        <time>2021-10-11T08:43:11Z</time>
      </trkpt>
      <trkpt lat="46.24767" lon="6.25698">
        <ele>501.88</ele>
        <time>2021-10-11T08:43:16Z</time>
      </trkpt>
      <trkpt lat="46.24756" lon="6.25719">
        <ele>502.61</ele>
        <time>2021-10-11T08:43:22Z</time>
      </trkpt>
      <trkpt lat="46.24744" lon="6.25739">
        <ele>502.97</ele>
        <time>2021-10-11T08:43:29Z</time>
      </trkpt>
      <trkpt lat="46.2475" lon="6.25755">
        <ele>503.25</ele>
        <time>2021-10-11T08:43:44Z</time>
      </trkpt>
      <trkpt lat="46.24768" lon="6.25765">
        <ele>503.06</ele>
        <time>2021-10-11T08:43:49Z</time>
      </trkpt>
      <trkpt lat="46.24787" lon="6.25775">
        <ele>503.15</ele>
        <time>2021-10-11T08:43:53Z</time>
      </trkpt>
      <trkpt lat="46.24808" lon="6.25787">
        <ele>503.21</ele>
        <time>2021-10-11T08:43:57Z</time>
      </trkpt>
      <trkpt lat="46.24827" lon="6.25797">
        <ele>503.11</ele>
        <time>2021-10-11T08:44:01Z</time>
      </trkpt>
      <trkpt lat="46.24845" lon="6.25806">
        <ele>502.68</ele>
        <time>2021-10-11T08:44:05Z</time>
      </trkpt>
      <trkpt lat="46.24863" lon="6.25817">
        <ele>501.67</ele>
        <time>2021-10-11T08:44:09Z</time>
      </trkpt>
      <trkpt lat="46.24881" lon="6.25827">
        <ele>501.67</ele>
        <time>2021-10-11T08:44:13Z</time>
      </trkpt>
      <trkpt lat="46.24899" lon="6.25837">
        <ele>501.67</ele>
        <time>2021-10-11T08:44:17Z</time>
      </trkpt>
      <trkpt lat="46.24917" lon="6.25848">
        <ele>501.67</ele>
        <time>2021-10-11T08:44:21Z</time>
      </trkpt>
      <trkpt lat="46.24936" lon="6.25859">
        <ele>501.67</ele>
        <time>2021-10-11T08:44:25Z</time>
      </trkpt>
      <trkpt lat="46.24955" lon="6.25871">
        <ele>501.67</ele>
        <time>2021-10-11T08:44:29Z</time>
      </trkpt>
      <trkpt lat="46.24972" lon="6.25883">
        <ele>501.67</ele>
        <time>2021-10-11T08:44:33Z</time>
      </trkpt>
      <trkpt lat="46.24974" lon="6.25909">
        <ele>501.67</ele>
        <time>2021-10-11T08:44:38Z</time>
      </trkpt>
      <trkpt lat="46.24967" lon="6.25933">
        <ele>501.67</ele>
        <time>2021-10-11T08:44:43Z</time>
      </trkpt>
      <trkpt lat="46.2496" lon="6.25962">
        <ele>501.67</ele>
        <time>2021-10-11T08:44:48Z</time>
      </trkpt>
      <trkpt lat="46.24952" lon="6.25991">
        <ele>501.67</ele>
        <time>2021-10-11T08:44:53Z</time>
      </trkpt>
      <trkpt lat="46.24945" lon="6.2602">
        <ele>501.67</ele>
        <time>2021-10-11T08:44:58Z</time>
      </trkpt>
      <trkpt lat="46.24938" lon="6.26047">
        <ele>501.67</ele>
        <time>2021-10-11T08:45:03Z</time>
      </trkpt>
      <trkpt lat="46.24931" lon="6.26075">
        <ele>501.67</ele>
        <time>2021-10-11T08:45:08Z</time>
      </trkpt>
      <trkpt lat="46.24924" lon="6.26104">
        <ele>501.67</ele>
        <time>2021-10-11T08:45:13Z</time>
      </trkpt>
      <trkpt lat="46.24917" lon="6.26133">
        <ele>501.67</ele>
        <time>2021-10-11T08:45:18Z</time>
      </trkpt>
      <trkpt lat="46.24911" lon="6.26158">
        <ele>501.67</ele>
        <time>2021-10-11T08:45:22Z</time>
      </trkpt>
      <trkpt lat="46.24905" lon="6.26184">
        <ele>501.67</ele>
        <time>2021-10-11T08:45:26Z</time>
      </trkpt>
      <trkpt lat="46.24899" lon="6.2621">
        <ele>501.67</ele>
        <time>2021-10-11T08:45:30Z</time>
      </trkpt>
      <trkpt lat="46.24893" lon="6.26234">
        <ele>501.67</ele>
        <time>2021-10-11T08:45:34Z</time>
      </trkpt>
      <trkpt lat="46.24886" lon="6.26261">
        <ele>501.67</ele>
        <time>2021-10-11T08:45:39Z</time>
      </trkpt>
      <trkpt lat="46.24879" lon="6.26291">
        <ele>501.67</ele>
        <time>2021-10-11T08:45:45Z</time>
      </trkpt>
      <trkpt lat="46.24862" lon="6.26297">
        <ele>501.67</ele>
        <time>2021-10-11T08:45:50Z</time>
      </trkpt>
      <trkpt lat="46.24844" lon="6.26282">
        <ele>501.67</ele>
        <time>2021-10-11T08:45:56Z</time>
      </trkpt>
      <trkpt lat="46.24825" lon="6.26279">
        <ele>501.67</ele>
        <time>2021-10-11T08:46:02Z</time>
      </trkpt>
      <trkpt lat="46.24813" lon="6.263">
        <ele>501.67</ele>
        <time>2021-10-11T08:46:07Z</time>
      </trkpt>
      <trkpt lat="46.24801" lon="6.26325">
        <ele>501.67</ele>
        <time>2021-10-11T08:46:12Z</time>
      </trkpt>
      <trkpt lat="46.24788" lon="6.26347">
        <ele>501.67</ele>
        <time>2021-10-11T08:46:16Z</time>
      </trkpt>
      <trkpt lat="46.24774" lon="6.26372">
        <ele>501.67</ele>
        <time>2021-10-11T08:46:20Z</time>
      </trkpt>
      <trkpt lat="46.24761" lon="6.26393">
        <ele>501.67</ele>
        <time>2021-10-11T08:46:24Z</time>
      </trkpt>
      <trkpt lat="46.24749" lon="6.26414">
        <ele>501.67</ele>
        <time>2021-10-11T08:46:29Z</time>
      </trkpt>
      <trkpt lat="46.24736" lon="6.26438">
        <ele>501.67</ele>
        <time>2021-10-11T08:46:34Z</time>
      </trkpt>
      <trkpt lat="46.24724" lon="6.26457">
        <ele>501.67</ele>
        <time>2021-10-11T08:46:38Z</time>
      </trkpt>
      <trkpt lat="46.24712" lon="6.26479">
        <ele>501.67</ele>
        <time>2021-10-11T08:46:42Z</time>
      </trkpt>
      <trkpt lat="46.24699" lon="6.265">
        <ele>501.67</ele>
        <time>2021-10-11T08:46:47Z</time>
      </trkpt>
      <trkpt lat="46.24687" lon="6.26522">
        <ele>501.67</ele>
        <time>2021-10-11T08:46:54Z</time>
      </trkpt>
      <trkpt lat="46.24675" lon="6.26544">
        <ele>501.67</ele>
        <time>2021-10-11T08:47:00Z</time>
      </trkpt>
      <trkpt lat="46.24679" lon="6.26572">
        <ele>501.67</ele>
        <time>2021-10-11T08:47:08Z</time>
      </trkpt>
      <trkpt lat="46.24692" lon="6.26591">
        <ele>501.67</ele>
        <time>2021-10-11T08:47:13Z</time>
      </trkpt>
      <trkpt lat="46.24707" lon="6.26617">
        <ele>501.67</ele>
        <time>2021-10-11T08:47:18Z</time>
      </trkpt>
      <trkpt lat="46.2472" lon="6.26641">
        <ele>501.67</ele>
        <time>2021-10-11T08:47:23Z</time>
      </trkpt>
      <trkpt lat="46.24731" lon="6.26664">
        <ele>501.67</ele>
        <time>2021-10-11T08:47:29Z</time>
      </trkpt>
      <trkpt lat="46.24743" lon="6.26687">
        <ele>501.67</ele>
        <time>2021-10-11T08:47:35Z</time>
      </trkpt>
      <trkpt lat="46.24754" lon="6.26712">
        <ele>501.67</ele>
        <time>2021-10-11T08:47:41Z</time>
      </trkpt>
      <trkpt lat="46.24763" lon="6.26739">
        <ele>501.67</ele>
        <time>2021-10-11T08:47:47Z</time>
      </trkpt>
      <trkpt lat="46.24771" lon="6.26767">
        <ele>501.67</ele>
        <time>2021-10-11T08:47:53Z</time>
      </trkpt>
      <trkpt lat="46.24781" lon="6.26798">
        <ele>501.67</ele>
        <time>2021-10-11T08:47:59Z</time>
      </trkpt>
      <trkpt lat="46.24789" lon="6.26827">
        <ele>501.67</ele>
        <time>2021-10-11T08:48:05Z</time>
      </trkpt>
      <trkpt lat="46.24798" lon="6.26856">
        <ele>501.67</ele>
        <time>2021-10-11T08:48:10Z</time>
      </trkpt>
      <trkpt lat="46.24807" lon="6.26887">
        <ele>501.67</ele>
        <time>2021-10-11T08:48:15Z</time>
      </trkpt>
      <trkpt lat="46.24813" lon="6.26917">
        <ele>501.67</ele>
        <time>2021-10-11T08:48:21Z</time>
      </trkpt>
      <trkpt lat="46.24821" lon="6.26947">
        <ele>501.67</ele>
        <time>2021-10-11T08:48:27Z</time>
      </trkpt>
      <trkpt lat="46.2483" lon="6.26979">
        <ele>501.67</ele>
        <time>2021-10-11T08:48:33Z</time>
      </trkpt>
      <trkpt lat="46.24843" lon="6.27008">
        <ele>501.67</ele>
        <time>2021-10-11T08:48:38Z</time>
      </trkpt>
      <trkpt lat="46.24854" lon="6.2703">
        <ele>501.67</ele>
        <time>2021-10-11T08:48:45Z</time>
      </trkpt>
      <trkpt lat="46.2487" lon="6.27068">
        <ele>501.67</ele>
        <time>2021-10-11T08:50:40Z</time>
      </trkpt>
      <trkpt lat="46.2488" lon="6.27093">
        <ele>501.67</ele>
        <time>2021-10-11T08:50:47Z</time>
      </trkpt>
      <trkpt lat="46.24893" lon="6.2712">
        <ele>501.67</ele>
        <time>2021-10-11T08:50:54Z</time>
      </trkpt>
      <trkpt lat="46.24904" lon="6.27147">
        <ele>501.67</ele>
        <time>2021-10-11T08:51:00Z</time>
      </trkpt>
      <trkpt lat="46.24912" lon="6.2718">
        <ele>501.67</ele>
        <time>2021-10-11T08:51:06Z</time>
      </trkpt>
      <trkpt lat="46.24918" lon="6.2721">
        <ele>501.67</ele>
        <time>2021-10-11T08:51:12Z</time>
      </trkpt>
      <trkpt lat="46.24925" lon="6.2724">
        <ele>501.67</ele>
        <time>2021-10-11T08:51:18Z</time>
      </trkpt>
      <trkpt lat="46.24933" lon="6.27266">
        <ele>501.67</ele>
        <time>2021-10-11T08:51:24Z</time>
      </trkpt>
      <trkpt lat="46.24944" lon="6.27295">
        <ele>501.67</ele>
        <time>2021-10-11T08:51:31Z</time>
      </trkpt>
      <trkpt lat="46.24956" lon="6.2732">
        <ele>501.67</ele>
        <time>2021-10-11T08:51:37Z</time>
      </trkpt>
      <trkpt lat="46.24969" lon="6.27344">
        <ele>501.67</ele>
        <time>2021-10-11T08:51:43Z</time>
      </trkpt>
      <trkpt lat="46.24982" lon="6.27368">
        <ele>501.67</ele>
        <time>2021-10-11T08:51:51Z</time>
      </trkpt>
      <trkpt lat="46.24994" lon="6.27395">
        <ele>501.67</ele>
        <time>2021-10-11T08:51:58Z</time>
      </trkpt>
      <trkpt lat="46.25002" lon="6.27423">
        <ele>501.67</ele>
        <time>2021-10-11T08:52:04Z</time>
      </trkpt>
      <trkpt lat="46.25012" lon="6.27449">
        <ele>501.67</ele>
        <time>2021-10-11T08:52:10Z</time>
      </trkpt>
      <trkpt lat="46.25025" lon="6.27472">
        <ele>501.67</ele>
        <time>2021-10-11T08:52:17Z</time>
      </trkpt>
      <trkpt lat="46.25043" lon="6.27484">
        <ele>501.67</ele>
        <time>2021-10-11T08:52:26Z</time>
      </trkpt>
      <trkpt lat="46.25054" lon="6.27511">
        <ele>501.67</ele>
        <time>2021-10-11T08:52:33Z</time>
      </trkpt>
      <trkpt lat="46.25061" lon="6.2754">
        <ele>501.67</ele>
        <time>2021-10-11T08:52:39Z</time>
      </trkpt>
      <trkpt lat="46.25069" lon="6.27569">
        <ele>501.67</ele>
        <time>2021-10-11T08:52:45Z</time>
      </trkpt>
      <trkpt lat="46.25078" lon="6.27601">
        <ele>501.67</ele>
        <time>2021-10-11T08:52:51Z</time>
      </trkpt>
      <trkpt lat="46.25088" lon="6.27627">
        <ele>501.67</ele>
        <time>2021-10-11T08:52:57Z</time>
      </trkpt>
      <trkpt lat="46.25082" lon="6.27654">
        <ele>501.67</ele>
        <time>2021-10-11T08:53:05Z</time>
      </trkpt>
      <trkpt lat="46.25064" lon="6.27675">
        <ele>501.67</ele>
        <time>2021-10-11T08:53:10Z</time>
      </trkpt>
      <trkpt lat="46.25049" lon="6.27694">
        <ele>501.67</ele>
        <time>2021-10-11T08:53:15Z</time>
      </trkpt>
      <trkpt lat="46.25034" lon="6.27713">
        <ele>505.95</ele>
        <time>2021-10-11T08:53:20Z</time>
      </trkpt>
      <trkpt lat="46.25021" lon="6.27732">
        <ele>506.23</ele>
        <time>2021-10-11T08:53:25Z</time>
      </trkpt>
      <trkpt lat="46.25003" lon="6.27727">
        <ele>506.86</ele>
        <time>2021-10-11T08:53:33Z</time>
      </trkpt>
      <trkpt lat="46.24984" lon="6.27739">
        <ele>507.68</ele>
        <time>2021-10-11T08:53:39Z</time>
      </trkpt>
      <trkpt lat="46.24969" lon="6.27758">
        <ele>508.05</ele>
        <time>2021-10-11T08:53:44Z</time>
      </trkpt>
      <trkpt lat="46.24955" lon="6.27776">
        <ele>508.3</ele>
        <time>2021-10-11T08:53:49Z</time>
      </trkpt>
      <trkpt lat="46.2494" lon="6.27794">
        <ele>508.7</ele>
        <time>2021-10-11T08:53:54Z</time>
      </trkpt>
      <trkpt lat="46.24924" lon="6.27815">
        <ele>509.02</ele>
        <time>2021-10-11T08:53:59Z</time>
      </trkpt>
      <trkpt lat="46.24909" lon="6.27836">
        <ele>509.57</ele>
        <time>2021-10-11T08:54:04Z</time>
      </trkpt>
      <trkpt lat="46.24895" lon="6.27856">
        <ele>510.1</ele>
        <time>2021-10-11T08:54:11Z</time>
      </trkpt>
      <trkpt lat="46.24879" lon="6.27872">
        <ele>510.41</ele>
        <time>2021-10-11T08:54:19Z</time>
      </trkpt>
      <trkpt lat="46.24873" lon="6.27881">
        <ele>510.64</ele>
        <time>2021-10-11T08:54:46Z</time>
      </trkpt>
      <trkpt lat="46.24874" lon="6.2788">
        <ele>511.19</ele>
        <time>2021-10-11T08:55:33Z</time>
      </trkpt>
      <trkpt lat="46.24892" lon="6.27896">
        <ele>511.19</ele>
        <time>2021-10-11T08:55:51Z</time>
      </trkpt>
      <trkpt lat="46.24907" lon="6.27914">
        <ele>511.19</ele>
        <time>2021-10-11T08:55:58Z</time>
      </trkpt>
      <trkpt lat="46.24918" lon="6.27938">
        <ele>511.19</ele>
        <time>2021-10-11T08:56:05Z</time>
      </trkpt>
      <trkpt lat="46.24929" lon="6.27934">
        <ele>511.19</ele>
        <time>2021-10-11T08:56:58Z</time>
      </trkpt>
      <trkpt lat="46.24919" lon="6.27961">
        <ele>511.19</ele>
        <time>2021-10-11T08:57:25Z</time>
      </trkpt>
      <trkpt lat="46.24929" lon="6.27987">
        <ele>511.19</ele>
        <time>2021-10-11T08:57:31Z</time>
      </trkpt>
      <trkpt lat="46.24943" lon="6.28011">
        <ele>511.19</ele>
        <time>2021-10-11T08:57:36Z</time>
      </trkpt>
      <trkpt lat="46.24956" lon="6.28038">
        <ele>511.19</ele>
        <time>2021-10-11T08:57:42Z</time>
      </trkpt>
      <trkpt lat="46.24967" lon="6.28063">
        <ele>511.19</ele>
        <time>2021-10-11T08:57:47Z</time>
      </trkpt>
      <trkpt lat="46.24979" lon="6.2809">
        <ele>511.19</ele>
        <time>2021-10-11T08:57:52Z</time>
      </trkpt>
      <trkpt lat="46.24993" lon="6.28119">
        <ele>511.19</ele>
        <time>2021-10-11T08:57:58Z</time>
      </trkpt>
      <trkpt lat="46.25008" lon="6.28145">
        <ele>511.19</ele>
        <time>2021-10-11T08:58:03Z</time>
      </trkpt>
      <trkpt lat="46.25022" lon="6.28172">
        <ele>511.19</ele>
        <time>2021-10-11T08:58:08Z</time>
      </trkpt>
      <trkpt lat="46.25034" lon="6.28195">
        <ele>511.19</ele>
        <time>2021-10-11T08:58:13Z</time>
      </trkpt>
      <trkpt lat="46.25045" lon="6.28221">
        <ele>511.19</ele>
        <time>2021-10-11T08:58:20Z</time>
      </trkpt>
      <trkpt lat="46.25059" lon="6.28248">
        <ele>511.19</ele>
        <time>2021-10-11T08:58:26Z</time>
      </trkpt>
      <trkpt lat="46.25073" lon="6.28274">
        <ele>511.19</ele>
        <time>2021-10-11T08:58:31Z</time>
      </trkpt>
      <trkpt lat="46.25086" lon="6.28299">
        <ele>511.19</ele>
        <time>2021-10-11T08:58:36Z</time>
      </trkpt>
      <trkpt lat="46.251" lon="6.28328">
        <ele>511.19</ele>
        <time>2021-10-11T08:58:43Z</time>
      </trkpt>
      <trkpt lat="46.25093" lon="6.28359">
        <ele>511.19</ele>
        <time>2021-10-11T08:58:50Z</time>
      </trkpt>
      <trkpt lat="46.25083" lon="6.28385">
        <ele>511.19</ele>
        <time>2021-10-11T08:58:56Z</time>
      </trkpt>
      <trkpt lat="46.25069" lon="6.28413">
        <ele>511.19</ele>
        <time>2021-10-11T08:59:03Z</time>
      </trkpt>
      <trkpt lat="46.2505" lon="6.28433">
        <ele>511.19</ele>
        <time>2021-10-11T08:59:09Z</time>
      </trkpt>
      <trkpt lat="46.2503" lon="6.28453">
        <ele>511.19</ele>
        <time>2021-10-11T08:59:17Z</time>
      </trkpt>
      <trkpt lat="46.25011" lon="6.28472">
        <ele>511.19</ele>
        <time>2021-10-11T08:59:23Z</time>
      </trkpt>
      <trkpt lat="46.24993" lon="6.28493">
        <ele>515.05</ele>
        <time>2021-10-11T08:59:28Z</time>
      </trkpt>
      <trkpt lat="46.24975" lon="6.28513">
        <ele>515.28</ele>
        <time>2021-10-11T08:59:33Z</time>
      </trkpt>
      <trkpt lat="46.24963" lon="6.28538">
        <ele>515.81</ele>
        <time>2021-10-11T08:59:39Z</time>
      </trkpt>
      <trkpt lat="46.24946" lon="6.28559">
        <ele>516.33</ele>
        <time>2021-10-11T08:59:47Z</time>
      </trkpt>
      <trkpt lat="46.24916" lon="6.28562">
        <ele>516.74</ele>
        <time>2021-10-11T08:59:56Z</time>
      </trkpt>
      <trkpt lat="46.24891" lon="6.2856">
        <ele>517.31</ele>
        <time>2021-10-11T09:00:08Z</time>
      </trkpt>
      <trkpt lat="46.24899" lon="6.28568">
        <ele>517.73</ele>
        <time>2021-10-11T09:00:36Z</time>
      </trkpt>
      <trkpt lat="46.24886" lon="6.28591">
        <ele>517.97</ele>
        <time>2021-10-11T09:00:51Z</time>
      </trkpt>
      <trkpt lat="46.24879" lon="6.2862">
        <ele>518.31</ele>
        <time>2021-10-11T09:01:21Z</time>
      </trkpt>
      <trkpt lat="46.24863" lon="6.28641">
        <ele>518.33</ele>
        <time>2021-10-11T09:01:27Z</time>
      </trkpt>
      <trkpt lat="46.24848" lon="6.28663">
        <ele>518.33</ele>
        <time>2021-10-11T09:01:32Z</time>
      </trkpt>
      <trkpt lat="46.24832" lon="6.28683">
        <ele>518.33</ele>
        <time>2021-10-11T09:01:37Z</time>
      </trkpt>
      <trkpt lat="46.24815" lon="6.28699">
        <ele>518.33</ele>
        <time>2021-10-11T09:01:41Z</time>
      </trkpt>
      <trkpt lat="46.24799" lon="6.28715">
        <ele>518.33</ele>
        <time>2021-10-11T09:01:45Z</time>
      </trkpt>
      <trkpt lat="46.24783" lon="6.2873">
        <ele>518.33</ele>
        <time>2021-10-11T09:01:51Z</time>
      </trkpt>
      <trkpt lat="46.24768" lon="6.28752">
        <ele>518.33</ele>
        <time>2021-10-11T09:01:57Z</time>
      </trkpt>
      <trkpt lat="46.24748" lon="6.2877">
        <ele>518.33</ele>
        <time>2021-10-11T09:02:02Z</time>
      </trkpt>
      <trkpt lat="46.24729" lon="6.2879">
        <ele>518.33</ele>
        <time>2021-10-11T09:02:08Z</time>
      </trkpt>
      <trkpt lat="46.24718" lon="6.28821">
        <ele>518.33</ele>
        <time>2021-10-11T09:02:15Z</time>
      </trkpt>
      <trkpt lat="46.2471" lon="6.28849">
        <ele>518.33</ele>
        <time>2021-10-11T09:02:20Z</time>
      </trkpt>
      <trkpt lat="46.24705" lon="6.28877">
        <ele>518.33</ele>
        <time>2021-10-11T09:02:24Z</time>
      </trkpt>
      <trkpt lat="46.24695" lon="6.28904">
        <ele>521.65</ele>
        <time>2021-10-11T09:02:28Z</time>
      </trkpt>
      <trkpt lat="46.24684" lon="6.28933">
        <ele>521.65</ele>
        <time>2021-10-11T09:02:33Z</time>
      </trkpt>
      <trkpt lat="46.24674" lon="6.28961">
        <ele>521.66</ele>
        <time>2021-10-11T09:02:39Z</time>
      </trkpt>
      <trkpt lat="46.24664" lon="6.28991">
        <ele>521.8</ele>
        <time>2021-10-11T09:02:45Z</time>
      </trkpt>
      <trkpt lat="46.24647" lon="6.29012">
        <ele>522.07</ele>
        <time>2021-10-11T09:02:51Z</time>
      </trkpt>
      <trkpt lat="46.24636" lon="6.29041">
        <ele>522.49</ele>
        <time>2021-10-11T09:02:57Z</time>
      </trkpt>
      <trkpt lat="46.24623" lon="6.29066">
        <ele>522.96</ele>
        <time>2021-10-11T09:03:03Z</time>
      </trkpt>
      <trkpt lat="46.24606" lon="6.29088">
        <ele>523.77</ele>
        <time>2021-10-11T09:03:11Z</time>
      </trkpt>
      <trkpt lat="46.24587" lon="6.29117">
        <ele>524.57</ele>
        <time>2021-10-11T09:03:19Z</time>
      </trkpt>
      <trkpt lat="46.24571" lon="6.29141">
        <ele>525.25</ele>
        <time>2021-10-11T09:03:25Z</time>
      </trkpt>
      <trkpt lat="46.2455" lon="6.29165">
        <ele>525.96</ele>
        <time>2021-10-11T09:03:33Z</time>
      </trkpt>
      <trkpt lat="46.24533" lon="6.29183">
        <ele>526.56</ele>
        <time>2021-10-11T09:03:39Z</time>
      </trkpt>
      <trkpt lat="46.24508" lon="6.29201">
        <ele>526.9</ele>
        <time>2021-10-11T09:03:47Z</time>
      </trkpt>
      <trkpt lat="46.24486" lon="6.29228">
        <ele>527.4</ele>
        <time>2021-10-11T09:03:54Z</time>
      </trkpt>
      <trkpt lat="46.24464" lon="6.29248">
        <ele>528.49</ele>
        <time>2021-10-11T09:04:03Z</time>
      </trkpt>
      <trkpt lat="46.24449" lon="6.29272">
        <ele>529.03</ele>
        <time>2021-10-11T09:04:10Z</time>
      </trkpt>
      <trkpt lat="46.24437" lon="6.29296">
        <ele>529.03</ele>
        <time>2021-10-11T09:04:14Z</time>
      </trkpt>
      <trkpt lat="46.24424" lon="6.29319">
        <ele>528.7</ele>
        <time>2021-10-11T09:04:19Z</time>
      </trkpt>
      <trkpt lat="46.24414" lon="6.29346">
        <ele>528.37</ele>
        <time>2021-10-11T09:04:25Z</time>
      </trkpt>
      <trkpt lat="46.24405" lon="6.29373">
        <ele>528.55</ele>
        <time>2021-10-11T09:04:30Z</time>
      </trkpt>
      <trkpt lat="46.24398" lon="6.29405">
        <ele>528.71</ele>
        <time>2021-10-11T09:04:35Z</time>
      </trkpt>
      <trkpt lat="46.24388" lon="6.29434">
        <ele>529.19</ele>
        <time>2021-10-11T09:04:40Z</time>
      </trkpt>
      <trkpt lat="46.24375" lon="6.29459">
        <ele>529.4</ele>
        <time>2021-10-11T09:04:46Z</time>
      </trkpt>
      <trkpt lat="46.24366" lon="6.29484">
        <ele>529.57</ele>
        <time>2021-10-11T09:04:51Z</time>
      </trkpt>
      <trkpt lat="46.24356" lon="6.29511">
        <ele>529.8</ele>
        <time>2021-10-11T09:04:56Z</time>
      </trkpt>
      <trkpt lat="46.24349" lon="6.29536">
        <ele>530.11</ele>
        <time>2021-10-11T09:05:02Z</time>
      </trkpt>
      <trkpt lat="46.24366" lon="6.29555">
        <ele>530.11</ele>
        <time>2021-10-11T09:05:12Z</time>
      </trkpt>
      <trkpt lat="46.24386" lon="6.29573">
        <ele>530.11</ele>
        <time>2021-10-11T09:05:21Z</time>
      </trkpt>
      <trkpt lat="46.24405" lon="6.2959">
        <ele>530.3</ele>
        <time>2021-10-11T09:05:31Z</time>
      </trkpt>
      <trkpt lat="46.24434" lon="6.29614">
        <ele>530.72</ele>
        <time>2021-10-11T09:05:57Z</time>
      </trkpt>
      <trkpt lat="46.24454" lon="6.29631">
        <ele>530.88</ele>
        <time>2021-10-11T09:06:05Z</time>
      </trkpt>
      <trkpt lat="46.24477" lon="6.2965">
        <ele>531.16</ele>
        <time>2021-10-11T09:06:14Z</time>
      </trkpt>
      <trkpt lat="46.24498" lon="6.29665">
        <ele>531.34</ele>
        <time>2021-10-11T09:06:20Z</time>
      </trkpt>
      <trkpt lat="46.24521" lon="6.29679">
        <ele>531.43</ele>
        <time>2021-10-11T09:06:25Z</time>
      </trkpt>
      <trkpt lat="46.24546" lon="6.29694">
        <ele>531.39</ele>
        <time>2021-10-11T09:06:32Z</time>
      </trkpt>
      <trkpt lat="46.24567" lon="6.29712">
        <ele>531.06</ele>
        <time>2021-10-11T09:06:40Z</time>
      </trkpt>
      <trkpt lat="46.24588" lon="6.29729">
        <ele>530.5</ele>
        <time>2021-10-11T09:06:48Z</time>
      </trkpt>
      <trkpt lat="46.24607" lon="6.29747">
        <ele>530.17</ele>
        <time>2021-10-11T09:06:54Z</time>
      </trkpt>
      <trkpt lat="46.24635" lon="6.29768">
        <ele>529.65</ele>
        <time>2021-10-11T09:08:40Z</time>
      </trkpt>
      <trkpt lat="46.24658" lon="6.29781">
        <ele>529.65</ele>
        <time>2021-10-11T09:08:47Z</time>
      </trkpt>
      <trkpt lat="46.24682" lon="6.29794">
        <ele>529.65</ele>
        <time>2021-10-11T09:08:53Z</time>
      </trkpt>
      <trkpt lat="46.24708" lon="6.29808">
        <ele>529.65</ele>
        <time>2021-10-11T09:09:25Z</time>
      </trkpt>
      <trkpt lat="46.24729" lon="6.29821">
        <ele>529.65</ele>
        <time>2021-10-11T09:09:34Z</time>
      </trkpt>
      <trkpt lat="46.24749" lon="6.29832">
        <ele>529.65</ele>
        <time>2021-10-11T09:09:41Z</time>
      </trkpt>
      <trkpt lat="46.24769" lon="6.29844">
        <ele>529.65</ele>
        <time>2021-10-11T09:09:46Z</time>
      </trkpt>
      <trkpt lat="46.24783" lon="6.29858">
        <ele>529.65</ele>
        <time>2021-10-11T09:10:15Z</time>
      </trkpt>
      <trkpt lat="46.24801" lon="6.29877">
        <ele>529.65</ele>
        <time>2021-10-11T09:10:31Z</time>
      </trkpt>
      <trkpt lat="46.24819" lon="6.29901">
        <ele>529.65</ele>
        <time>2021-10-11T09:10:41Z</time>
      </trkpt>
      <trkpt lat="46.24837" lon="6.2992">
        <ele>529.65</ele>
        <time>2021-10-11T09:10:47Z</time>
      </trkpt>
      <trkpt lat="46.24853" lon="6.29937">
        <ele>529.65</ele>
        <time>2021-10-11T09:10:53Z</time>
      </trkpt>
      <trkpt lat="46.24872" lon="6.29955">
        <ele>529.65</ele>
        <time>2021-10-11T09:10:58Z</time>
      </trkpt>
      <trkpt lat="46.2489" lon="6.29974">
        <ele>529.65</ele>
        <time>2021-10-11T09:11:04Z</time>
      </trkpt>
      <trkpt lat="46.24911" lon="6.29993">
        <ele>529.65</ele>
        <time>2021-10-11T09:11:11Z</time>
      </trkpt>
      <trkpt lat="46.24931" lon="6.3001">
        <ele>529.65</ele>
        <time>2021-10-11T09:11:18Z</time>
      </trkpt>
      <trkpt lat="46.24949" lon="6.30023">
        <ele>529.65</ele>
        <time>2021-10-11T09:11:24Z</time>
      </trkpt>
      <trkpt lat="46.24964" lon="6.30045">
        <ele>529.65</ele>
        <time>2021-10-11T09:11:30Z</time>
      </trkpt>
      <trkpt lat="46.24977" lon="6.30066">
        <ele>532.77</ele>
        <time>2021-10-11T09:11:36Z</time>
      </trkpt>
      <trkpt lat="46.24998" lon="6.30075">
        <ele>532.78</ele>
        <time>2021-10-11T09:11:42Z</time>
      </trkpt>
      <trkpt lat="46.25015" lon="6.30087">
        <ele>532.94</ele>
        <time>2021-10-11T09:11:47Z</time>
      </trkpt>
      <trkpt lat="46.25035" lon="6.30097">
        <ele>533.43</ele>
        <time>2021-10-11T09:12:09Z</time>
      </trkpt>
      <trkpt lat="46.25053" lon="6.30106">
        <ele>533.4</ele>
        <time>2021-10-11T09:12:17Z</time>
      </trkpt>
      <trkpt lat="46.25076" lon="6.30119">
        <ele>533.49</ele>
        <time>2021-10-11T09:12:35Z</time>
      </trkpt>
      <trkpt lat="46.25098" lon="6.30135">
        <ele>533.62</ele>
        <time>2021-10-11T09:12:41Z</time>
      </trkpt>
      <trkpt lat="46.25117" lon="6.3015">
        <ele>533.89</ele>
        <time>2021-10-11T09:12:46Z</time>
      </trkpt>
      <trkpt lat="46.25136" lon="6.30165">
        <ele>533.98</ele>
        <time>2021-10-11T09:12:52Z</time>
      </trkpt>
      <trkpt lat="46.25155" lon="6.30179">
        <ele>534.1</ele>
        <time>2021-10-11T09:12:57Z</time>
      </trkpt>
      <trkpt lat="46.25171" lon="6.30194">
        <ele>534.35</ele>
        <time>2021-10-11T09:13:01Z</time>
      </trkpt>
      <trkpt lat="46.25187" lon="6.30211">
        <ele>534.51</ele>
        <time>2021-10-11T09:13:06Z</time>
      </trkpt>
      <trkpt lat="46.25203" lon="6.30232">
        <ele>534.71</ele>
        <time>2021-10-11T09:13:12Z</time>
      </trkpt>
      <trkpt lat="46.25219" lon="6.30248">
        <ele>534.79</ele>
        <time>2021-10-11T09:13:17Z</time>
      </trkpt>
      <trkpt lat="46.25238" lon="6.30261">
        <ele>534.99</ele>
        <time>2021-10-11T09:13:24Z</time>
      </trkpt>
      <trkpt lat="46.25255" lon="6.30276">
        <ele>535.18</ele>
        <time>2021-10-11T09:13:30Z</time>
      </trkpt>
      <trkpt lat="46.2527" lon="6.30301">
        <ele>536.49</ele>
        <time>2021-10-11T09:14:49Z</time>
      </trkpt>
      <trkpt lat="46.25279" lon="6.30272">
        <ele>536.06</ele>
        <time>2021-10-11T09:15:04Z</time>
      </trkpt>
      <trkpt lat="46.2529" lon="6.30245">
        <ele>535.71</ele>
        <time>2021-10-11T09:15:11Z</time>
      </trkpt>
      <trkpt lat="46.25303" lon="6.30218">
        <ele>535.37</ele>
        <time>2021-10-11T09:15:16Z</time>
      </trkpt>
      <trkpt lat="46.25316" lon="6.30194">
        <ele>535.03</ele>
        <time>2021-10-11T09:15:21Z</time>
      </trkpt>
      <trkpt lat="46.25327" lon="6.30172">
        <ele>534.75</ele>
        <time>2021-10-11T09:15:26Z</time>
      </trkpt>
      <trkpt lat="46.25338" lon="6.30147">
        <ele>534.37</ele>
        <time>2021-10-11T09:15:31Z</time>
      </trkpt>
      <trkpt lat="46.2535" lon="6.30124">
        <ele>534.11</ele>
        <time>2021-10-11T09:15:35Z</time>
      </trkpt>
      <trkpt lat="46.25362" lon="6.301">
        <ele>533.63</ele>
        <time>2021-10-11T09:15:39Z</time>
      </trkpt>
      <trkpt lat="46.25375" lon="6.30076">
        <ele>533.12</ele>
        <time>2021-10-11T09:15:43Z</time>
      </trkpt>
      <trkpt lat="46.25387" lon="6.30054">
        <ele>532.56</ele>
        <time>2021-10-11T09:15:47Z</time>
      </trkpt>
      <trkpt lat="46.25399" lon="6.30034">
        <ele>532.15</ele>
        <time>2021-10-11T09:15:51Z</time>
      </trkpt>
      <trkpt lat="46.25413" lon="6.30012">
        <ele>531.6</ele>
        <time>2021-10-11T09:15:56Z</time>
      </trkpt>
      <trkpt lat="46.25423" lon="6.29987">
        <ele>531.18</ele>
        <time>2021-10-11T09:16:01Z</time>
      </trkpt>
      <trkpt lat="46.25432" lon="6.29959">
        <ele>530.81</ele>
        <time>2021-10-11T09:16:06Z</time>
      </trkpt>
      <trkpt lat="46.25437" lon="6.29932">
        <ele>530.18</ele>
        <time>2021-10-11T09:16:11Z</time>
      </trkpt>
      <trkpt lat="46.25439" lon="6.29905">
        <ele>529.61</ele>
        <time>2021-10-11T09:16:16Z</time>
      </trkpt>
      <trkpt lat="46.25441" lon="6.29878">
        <ele>529.34</ele>
        <time>2021-10-11T09:16:20Z</time>
      </trkpt>
      <trkpt lat="46.25444" lon="6.29843">
        <ele>528.99</ele>
        <time>2021-10-11T09:16:24Z</time>
      </trkpt>
      <trkpt lat="46.25448" lon="6.2981">
        <ele>528.47</ele>
        <time>2021-10-11T09:16:28Z</time>
      </trkpt>
      <trkpt lat="46.25452" lon="6.29779">
        <ele>527.71</ele>
        <time>2021-10-11T09:16:32Z</time>
      </trkpt>
      <trkpt lat="46.25456" lon="6.29747">
        <ele>526.9</ele>
        <time>2021-10-11T09:16:36Z</time>
      </trkpt>
      <trkpt lat="46.25459" lon="6.29716">
        <ele>526.19</ele>
        <time>2021-10-11T09:16:40Z</time>
      </trkpt>
      <trkpt lat="46.25465" lon="6.29686">
        <ele>525.56</ele>
        <time>2021-10-11T09:16:44Z</time>
      </trkpt>
      <trkpt lat="46.25469" lon="6.29655">
        <ele>524.84</ele>
        <time>2021-10-11T09:16:48Z</time>
      </trkpt>
      <trkpt lat="46.25472" lon="6.29624">
        <ele>524.22</ele>
        <time>2021-10-11T09:16:52Z</time>
      </trkpt>
      <trkpt lat="46.25476" lon="6.29594">
        <ele>523.52</ele>
        <time>2021-10-11T09:16:56Z</time>
      </trkpt>
      <trkpt lat="46.25482" lon="6.29564">
        <ele>522.8</ele>
        <time>2021-10-11T09:17:00Z</time>
      </trkpt>
      <trkpt lat="46.25488" lon="6.29535">
        <ele>522.05</ele>
        <time>2021-10-11T09:17:04Z</time>
      </trkpt>
      <trkpt lat="46.25496" lon="6.29509">
        <ele>521.3</ele>
        <time>2021-10-11T09:17:08Z</time>
      </trkpt>
      <trkpt lat="46.25508" lon="6.29487">
        <ele>520.48</ele>
        <time>2021-10-11T09:17:12Z</time>
      </trkpt>
      <trkpt lat="46.25521" lon="6.29467">
        <ele>519.02</ele>
        <time>2021-10-11T09:17:59Z</time>
      </trkpt>
      <trkpt lat="46.25527" lon="6.2944">
        <ele>518.98</ele>
        <time>2021-10-11T09:18:05Z</time>
      </trkpt>
      <trkpt lat="46.25537" lon="6.2941">
        <ele>518.73</ele>
        <time>2021-10-11T09:18:10Z</time>
      </trkpt>
      <trkpt lat="46.25547" lon="6.29384">
        <ele>518.29</ele>
        <time>2021-10-11T09:18:15Z</time>
      </trkpt>
      <trkpt lat="46.25557" lon="6.29358">
        <ele>518.03</ele>
        <time>2021-10-11T09:18:20Z</time>
      </trkpt>
      <trkpt lat="46.25564" lon="6.29327">
        <ele>517.64</ele>
        <time>2021-10-11T09:18:25Z</time>
      </trkpt>
      <trkpt lat="46.25564" lon="6.29296">
        <ele>517.31</ele>
        <time>2021-10-11T09:18:30Z</time>
      </trkpt>
      <trkpt lat="46.25556" lon="6.29272">
        <ele>517.06</ele>
        <time>2021-10-11T09:18:35Z</time>
      </trkpt>
      <trkpt lat="46.25561" lon="6.2925">
        <ele>516.6</ele>
        <time>2021-10-11T09:18:47Z</time>
      </trkpt>
      <trkpt lat="46.25586" lon="6.29244">
        <ele>516.54</ele>
        <time>2021-10-11T09:18:54Z</time>
      </trkpt>
      <trkpt lat="46.25608" lon="6.29246">
        <ele>516.52</ele>
        <time>2021-10-11T09:18:59Z</time>
      </trkpt>
      <trkpt lat="46.25631" lon="6.29252">
        <ele>516.33</ele>
        <time>2021-10-11T09:19:08Z</time>
      </trkpt>
      <trkpt lat="46.25654" lon="6.29261">
        <ele>516.24</ele>
        <time>2021-10-11T09:19:14Z</time>
      </trkpt>
      <trkpt lat="46.25674" lon="6.29273">
        <ele>516.15</ele>
        <time>2021-10-11T09:19:19Z</time>
      </trkpt>
      <trkpt lat="46.25694" lon="6.29286">
        <ele>515.99</ele>
        <time>2021-10-11T09:19:23Z</time>
      </trkpt>
      <trkpt lat="46.25715" lon="6.29299">
        <ele>515.84</ele>
        <time>2021-10-11T09:19:27Z</time>
      </trkpt>
      <trkpt lat="46.25733" lon="6.29308">
        <ele>515.77</ele>
        <time>2021-10-11T09:19:31Z</time>
      </trkpt>
      <trkpt lat="46.25752" lon="6.2932">
        <ele>515.63</ele>
        <time>2021-10-11T09:19:36Z</time>
      </trkpt>
      <trkpt lat="46.25768" lon="6.29306">
        <ele>515.65</ele>
        <time>2021-10-11T09:19:42Z</time>
      </trkpt>
      <trkpt lat="46.25781" lon="6.29282">
        <ele>515.32</ele>
        <time>2021-10-11T09:19:48Z</time>
      </trkpt>
      <trkpt lat="46.25801" lon="6.29264">
        <ele>515.27</ele>
        <time>2021-10-11T09:19:53Z</time>
      </trkpt>
      <trkpt lat="46.2582" lon="6.29246">
        <ele>515.23</ele>
        <time>2021-10-11T09:19:57Z</time>
      </trkpt>
      <trkpt lat="46.25839" lon="6.2923">
        <ele>515.23</ele>
        <time>2021-10-11T09:20:01Z</time>
      </trkpt>
      <trkpt lat="46.25853" lon="6.29212">
        <ele>515.24</ele>
        <time>2021-10-11T09:20:06Z</time>
      </trkpt>
      <trkpt lat="46.25862" lon="6.29187">
        <ele>515.34</ele>
        <time>2021-10-11T09:20:11Z</time>
      </trkpt>
      <trkpt lat="46.25867" lon="6.29155">
        <ele>515.45</ele>
        <time>2021-10-11T09:20:16Z</time>
      </trkpt>
      <trkpt lat="46.25872" lon="6.29129">
        <ele>515.49</ele>
        <time>2021-10-11T09:20:20Z</time>
      </trkpt>
      <trkpt lat="46.25873" lon="6.291">
        <ele>515.46</ele>
        <time>2021-10-11T09:20:25Z</time>
      </trkpt>
      <trkpt lat="46.25886" lon="6.29075">
        <ele>514.92</ele>
        <time>2021-10-11T09:20:35Z</time>
      </trkpt>
      <trkpt lat="46.25904" lon="6.2905">
        <ele>514.52</ele>
        <time>2021-10-11T09:20:41Z</time>
      </trkpt>
      <trkpt lat="46.25919" lon="6.29027">
        <ele>513.8</ele>
        <time>2021-10-11T09:20:46Z</time>
      </trkpt>
      <trkpt lat="46.25933" lon="6.29005">
        <ele>512.56</ele>
        <time>2021-10-11T09:20:55Z</time>
      </trkpt>
      <trkpt lat="46.25951" lon="6.28988">
        <ele>511.9</ele>
        <time>2021-10-11T09:21:33Z</time>
      </trkpt>
      <trkpt lat="46.25968" lon="6.28971">
        <ele>511.9</ele>
        <time>2021-10-11T09:21:44Z</time>
      </trkpt>
      <trkpt lat="46.25963" lon="6.2895">
        <ele>512.09</ele>
        <time>2021-10-11T09:21:58Z</time>
      </trkpt>
      <trkpt lat="46.25965" lon="6.28912">
        <ele>512.49</ele>
        <time>2021-10-11T09:23:02Z</time>
      </trkpt>
      <trkpt lat="46.25977" lon="6.28887">
        <ele>512.49</ele>
        <time>2021-10-11T09:23:10Z</time>
      </trkpt>
      <trkpt lat="46.25997" lon="6.28874">
        <ele>512.49</ele>
        <time>2021-10-11T09:23:17Z</time>
      </trkpt>
      <trkpt lat="46.25997" lon="6.28846">
        <ele>512.49</ele>
        <time>2021-10-11T09:23:25Z</time>
      </trkpt>
      <trkpt lat="46.25991" lon="6.28819">
        <ele>512.49</ele>
        <time>2021-10-11T09:23:31Z</time>
      </trkpt>
      <trkpt lat="46.2598" lon="6.28792">
        <ele>512.49</ele>
        <time>2021-10-11T09:23:38Z</time>
      </trkpt>
      <trkpt lat="46.25965" lon="6.28768">
        <ele>512.49</ele>
        <time>2021-10-11T09:23:47Z</time>
      </trkpt>
      <trkpt lat="46.25954" lon="6.28741">
        <ele>512.49</ele>
        <time>2021-10-11T09:23:55Z</time>
      </trkpt>
      <trkpt lat="46.25939" lon="6.28713">
        <ele>512.49</ele>
        <time>2021-10-11T09:24:03Z</time>
      </trkpt>
      <trkpt lat="46.2592" lon="6.28691">
        <ele>512.49</ele>
        <time>2021-10-11T09:24:10Z</time>
      </trkpt>
      <trkpt lat="46.259" lon="6.2867">
        <ele>512.49</ele>
        <time>2021-10-11T09:24:16Z</time>
      </trkpt>
      <trkpt lat="46.25878" lon="6.28645">
        <ele>512.49</ele>
        <time>2021-10-11T09:24:21Z</time>
      </trkpt>
      <trkpt lat="46.2586" lon="6.28624">
        <ele>512.49</ele>
        <time>2021-10-11T09:24:28Z</time>
      </trkpt>
      <trkpt lat="46.25854" lon="6.2859">
        <ele>512.49</ele>
        <time>2021-10-11T09:24:35Z</time>
      </trkpt>
      <trkpt lat="46.25852" lon="6.2856">
        <ele>512.49</ele>
        <time>2021-10-11T09:24:40Z</time>
      </trkpt>
      <trkpt lat="46.25841" lon="6.28531">
        <ele>512.49</ele>
        <time>2021-10-11T09:24:47Z</time>
      </trkpt>
      <trkpt lat="46.25827" lon="6.28511">
        <ele>515.93</ele>
        <time>2021-10-11T09:24:53Z</time>
      </trkpt>
      <trkpt lat="46.25814" lon="6.28489">
        <ele>515.93</ele>
        <time>2021-10-11T09:24:58Z</time>
      </trkpt>
      <trkpt lat="46.25799" lon="6.2846">
        <ele>515.94</ele>
        <time>2021-10-11T09:25:03Z</time>
      </trkpt>
      <trkpt lat="46.25789" lon="6.28436">
        <ele>515.93</ele>
        <time>2021-10-11T09:25:07Z</time>
      </trkpt>
      <trkpt lat="46.25778" lon="6.28406">
        <ele>515.8</ele>
        <time>2021-10-11T09:25:13Z</time>
      </trkpt>
      <trkpt lat="46.25772" lon="6.28378">
        <ele>515.67</ele>
        <time>2021-10-11T09:25:18Z</time>
      </trkpt>
      <trkpt lat="46.25763" lon="6.28347">
        <ele>515.64</ele>
        <time>2021-10-11T09:25:23Z</time>
      </trkpt>
      <trkpt lat="46.25755" lon="6.28318">
        <ele>515.55</ele>
        <time>2021-10-11T09:25:28Z</time>
      </trkpt>
      <trkpt lat="46.25745" lon="6.2829">
        <ele>515.4</ele>
        <time>2021-10-11T09:25:33Z</time>
      </trkpt>
      <trkpt lat="46.25739" lon="6.28258">
        <ele>515.14</ele>
        <time>2021-10-11T09:25:38Z</time>
      </trkpt>
      <trkpt lat="46.25735" lon="6.28232">
        <ele>515.04</ele>
        <time>2021-10-11T09:25:42Z</time>
      </trkpt>
      <trkpt lat="46.25726" lon="6.28209">
        <ele>514.88</ele>
        <time>2021-10-11T09:25:47Z</time>
      </trkpt>
      <trkpt lat="46.25723" lon="6.28183">
        <ele>514.84</ele>
        <time>2021-10-11T09:25:54Z</time>
      </trkpt>
      <trkpt lat="46.25736" lon="6.28163">
        <ele>514.72</ele>
        <time>2021-10-11T09:26:00Z</time>
      </trkpt>
      <trkpt lat="46.2575" lon="6.2814">
        <ele>514.31</ele>
        <time>2021-10-11T09:26:05Z</time>
      </trkpt>
      <trkpt lat="46.25756" lon="6.2811">
        <ele>513.75</ele>
        <time>2021-10-11T09:26:11Z</time>
      </trkpt>
      <trkpt lat="46.25762" lon="6.28079">
        <ele>513.19</ele>
        <time>2021-10-11T09:26:20Z</time>
      </trkpt>
      <trkpt lat="46.25772" lon="6.28049">
        <ele>512.87</ele>
        <time>2021-10-11T09:26:26Z</time>
      </trkpt>
      <trkpt lat="46.25782" lon="6.28023">
        <ele>512.69</ele>
        <time>2021-10-11T09:26:31Z</time>
      </trkpt>
      <trkpt lat="46.25794" lon="6.28">
        <ele>512.29</ele>
        <time>2021-10-11T09:26:38Z</time>
      </trkpt>
      <trkpt lat="46.25806" lon="6.27976">
        <ele>511.98</ele>
        <time>2021-10-11T09:26:45Z</time>
      </trkpt>
      <trkpt lat="46.25822" lon="6.27958">
        <ele>511.71</ele>
        <time>2021-10-11T09:26:52Z</time>
      </trkpt>
      <trkpt lat="46.25839" lon="6.27936">
        <ele>511.35</ele>
        <time>2021-10-11T09:26:58Z</time>
      </trkpt>
      <trkpt lat="46.25857" lon="6.27913">
        <ele>511.07</ele>
        <time>2021-10-11T09:27:03Z</time>
      </trkpt>
      <trkpt lat="46.25872" lon="6.2789">
        <ele>510.65</ele>
        <time>2021-10-11T09:27:09Z</time>
      </trkpt>
      <trkpt lat="46.25888" lon="6.27865">
        <ele>510.23</ele>
        <time>2021-10-11T09:27:16Z</time>
      </trkpt>
      <trkpt lat="46.25902" lon="6.27839">
        <ele>509.95</ele>
        <time>2021-10-11T09:27:22Z</time>
      </trkpt>
      <trkpt lat="46.25914" lon="6.27815">
        <ele>509.67</ele>
        <time>2021-10-11T09:27:27Z</time>
      </trkpt>
      <trkpt lat="46.25924" lon="6.27792">
        <ele>509.47</ele>
        <time>2021-10-11T09:27:32Z</time>
      </trkpt>
      <trkpt lat="46.25933" lon="6.27766">
        <ele>509.34</ele>
        <time>2021-10-11T09:27:37Z</time>
      </trkpt>
      <trkpt lat="46.25945" lon="6.2774">
        <ele>509.18</ele>
        <time>2021-10-11T09:27:42Z</time>
      </trkpt>
      <trkpt lat="46.25956" lon="6.27716">
        <ele>509.04</ele>
        <time>2021-10-11T09:27:46Z</time>
      </trkpt>
      <trkpt lat="46.25964" lon="6.27691">
        <ele>508.8</ele>
        <time>2021-10-11T09:27:50Z</time>
      </trkpt>
      <trkpt lat="46.25976" lon="6.27669">
        <ele>508.29</ele>
        <time>2021-10-11T09:27:55Z</time>
      </trkpt>
      <trkpt lat="46.25991" lon="6.27649">
        <ele>507.65</ele>
        <time>2021-10-11T09:28:01Z</time>
      </trkpt>
      <trkpt lat="46.25999" lon="6.27623">
        <ele>506.89</ele>
        <time>2021-10-11T09:28:07Z</time>
      </trkpt>
      <trkpt lat="46.26001" lon="6.27593">
        <ele>506.58</ele>
        <time>2021-10-11T09:28:12Z</time>
      </trkpt>
      <trkpt lat="46.25999" lon="6.27564">
        <ele>506.27</ele>
        <time>2021-10-11T09:28:16Z</time>
      </trkpt>
      <trkpt lat="46.25996" lon="6.27535">
        <ele>505.88</ele>
        <time>2021-10-11T09:28:20Z</time>
      </trkpt>
      <trkpt lat="46.25993" lon="6.27506">
        <ele>505.34</ele>
        <time>2021-10-11T09:28:25Z</time>
      </trkpt>
      <trkpt lat="46.2599" lon="6.27472">
        <ele>504.97</ele>
        <time>2021-10-11T09:28:31Z</time>
      </trkpt>
      <trkpt lat="46.25988" lon="6.27437">
        <ele>504.49</ele>
        <time>2021-10-11T09:28:36Z</time>
      </trkpt>
      <trkpt lat="46.25986" lon="6.27407">
        <ele>503.95</ele>
        <time>2021-10-11T09:28:41Z</time>
      </trkpt>
      <trkpt lat="46.25987" lon="6.27376">
        <ele>503.39</ele>
        <time>2021-10-11T09:28:47Z</time>
      </trkpt>
      <trkpt lat="46.25984" lon="6.27343">
        <ele>502.72</ele>
        <time>2021-10-11T09:28:53Z</time>
      </trkpt>
      <trkpt lat="46.25987" lon="6.27311">
        <ele>502.23</ele>
        <time>2021-10-11T09:28:59Z</time>
      </trkpt>
      <trkpt lat="46.25995" lon="6.27323">
        <ele>501.69</ele>
        <time>2021-10-11T09:29:57Z</time>
      </trkpt>
      <trkpt lat="46.26008" lon="6.27349">
        <ele>501.84</ele>
        <time>2021-10-11T09:30:03Z</time>
      </trkpt>
      <trkpt lat="46.26019" lon="6.27371">
        <ele>502.15</ele>
        <time>2021-10-11T09:30:09Z</time>
      </trkpt>
      <trkpt lat="46.2603" lon="6.27394">
        <ele>502.21</ele>
        <time>2021-10-11T09:30:14Z</time>
      </trkpt>
      <trkpt lat="46.26043" lon="6.27418">
        <ele>502.26</ele>
        <time>2021-10-11T09:30:19Z</time>
      </trkpt>
      <trkpt lat="46.26057" lon="6.27438">
        <ele>502.56</ele>
        <time>2021-10-11T09:30:25Z</time>
      </trkpt>
      <trkpt lat="46.26072" lon="6.27455">
        <ele>502.64</ele>
        <time>2021-10-11T09:30:31Z</time>
      </trkpt>
      <trkpt lat="46.26089" lon="6.27472">
        <ele>502.7</ele>
        <time>2021-10-11T09:30:36Z</time>
      </trkpt>
      <trkpt lat="46.26107" lon="6.27488">
        <ele>502.71</ele>
        <time>2021-10-11T09:30:41Z</time>
      </trkpt>
      <trkpt lat="46.26127" lon="6.27499">
        <ele>502.65</ele>
        <time>2021-10-11T09:30:47Z</time>
      </trkpt>
      <trkpt lat="46.26144" lon="6.27509">
        <ele>502.48</ele>
        <time>2021-10-11T09:30:52Z</time>
      </trkpt>
      <trkpt lat="46.26159" lon="6.2751">
        <ele>502.38</ele>
        <time>2021-10-11T09:31:21Z</time>
      </trkpt>
      <trkpt lat="46.2617" lon="6.27483">
        <ele>502.23</ele>
        <time>2021-10-11T09:31:39Z</time>
      </trkpt>
      <trkpt lat="46.2618" lon="6.27458">
        <ele>502.28</ele>
        <time>2021-10-11T09:31:44Z</time>
      </trkpt>
      <trkpt lat="46.26191" lon="6.27432">
        <ele>502.21</ele>
        <time>2021-10-11T09:31:49Z</time>
      </trkpt>
      <trkpt lat="46.26201" lon="6.27407">
        <ele>501.96</ele>
        <time>2021-10-11T09:31:54Z</time>
      </trkpt>
      <trkpt lat="46.26211" lon="6.27383">
        <ele>501.41</ele>
        <time>2021-10-11T09:32:00Z</time>
      </trkpt>
      <trkpt lat="46.26223" lon="6.27358">
        <ele>500.73</ele>
        <time>2021-10-11T09:32:05Z</time>
      </trkpt>
      <trkpt lat="46.26234" lon="6.27337">
        <ele>499.88</ele>
        <time>2021-10-11T09:32:10Z</time>
      </trkpt>
      <trkpt lat="46.26245" lon="6.27316">
        <ele>499.35</ele>
        <time>2021-10-11T09:32:16Z</time>
      </trkpt>
      <trkpt lat="46.26256" lon="6.27294">
        <ele>498.84</ele>
        <time>2021-10-11T09:32:22Z</time>
      </trkpt>
      <trkpt lat="46.26268" lon="6.27271">
        <ele>498.27</ele>
        <time>2021-10-11T09:32:28Z</time>
      </trkpt>
      <trkpt lat="46.2628" lon="6.27248">
        <ele>497.88</ele>
        <time>2021-10-11T09:32:34Z</time>
      </trkpt>
      <trkpt lat="46.26293" lon="6.27224">
        <ele>497.54</ele>
        <time>2021-10-11T09:32:40Z</time>
      </trkpt>
      <trkpt lat="46.26305" lon="6.27202">
        <ele>497.1</ele>
        <time>2021-10-11T09:32:45Z</time>
      </trkpt>
      <trkpt lat="46.26316" lon="6.2718">
        <ele>496.47</ele>
        <time>2021-10-11T09:32:51Z</time>
      </trkpt>
      <trkpt lat="46.26328" lon="6.27159">
        <ele>496.1</ele>
        <time>2021-10-11T09:32:57Z</time>
      </trkpt>
      <trkpt lat="46.26339" lon="6.27179">
        <ele>495.71</ele>
        <time>2021-10-11T09:33:31Z</time>
      </trkpt>
      <trkpt lat="46.26349" lon="6.27199">
        <ele>495.94</ele>
        <time>2021-10-11T09:33:48Z</time>
      </trkpt>
      <trkpt lat="46.2636" lon="6.2722">
        <ele>495.79</ele>
        <time>2021-10-11T09:34:13Z</time>
      </trkpt>
      <trkpt lat="46.26369" lon="6.27249">
        <ele>495.79</ele>
        <time>2021-10-11T09:34:19Z</time>
      </trkpt>
      <trkpt lat="46.26375" lon="6.27275">
        <ele>495.79</ele>
        <time>2021-10-11T09:34:24Z</time>
      </trkpt>
      <trkpt lat="46.26383" lon="6.27301">
        <ele>495.79</ele>
        <time>2021-10-11T09:34:29Z</time>
      </trkpt>
      <trkpt lat="46.26394" lon="6.27326">
        <ele>495.79</ele>
        <time>2021-10-11T09:34:36Z</time>
      </trkpt>
      <trkpt lat="46.26405" lon="6.27352">
        <ele>495.79</ele>
        <time>2021-10-11T09:34:42Z</time>
      </trkpt>
      <trkpt lat="46.26419" lon="6.27375">
        <ele>495.79</ele>
        <time>2021-10-11T09:34:48Z</time>
      </trkpt>
      <trkpt lat="46.26434" lon="6.27394">
        <ele>495.79</ele>
        <time>2021-10-11T09:34:54Z</time>
      </trkpt>
      <trkpt lat="46.26449" lon="6.27413">
        <ele>498.24</ele>
        <time>2021-10-11T09:35:00Z</time>
      </trkpt>
      <trkpt lat="46.26462" lon="6.27437">
        <ele>498.31</ele>
        <time>2021-10-11T09:35:05Z</time>
      </trkpt>
      <trkpt lat="46.26473" lon="6.2746">
        <ele>498.56</ele>
        <time>2021-10-11T09:35:10Z</time>
      </trkpt>
      <trkpt lat="46.26483" lon="6.27483">
        <ele>499.02</ele>
        <time>2021-10-11T09:35:16Z</time>
      </trkpt>
      <trkpt lat="46.26494" lon="6.27509">
        <ele>499.63</ele>
        <time>2021-10-11T09:35:22Z</time>
      </trkpt>
      <trkpt lat="46.26503" lon="6.27535">
        <ele>499.81</ele>
        <time>2021-10-11T09:35:28Z</time>
      </trkpt>
      <trkpt lat="46.26513" lon="6.27562">
        <ele>500.04</ele>
        <time>2021-10-11T09:35:34Z</time>
      </trkpt>
      <trkpt lat="46.26523" lon="6.27588">
        <ele>500.27</ele>
        <time>2021-10-11T09:35:39Z</time>
      </trkpt>
      <trkpt lat="46.26533" lon="6.27614">
        <ele>500.38</ele>
        <time>2021-10-11T09:35:44Z</time>
      </trkpt>
      <trkpt lat="46.26542" lon="6.27637">
        <ele>500.46</ele>
        <time>2021-10-11T09:35:50Z</time>
      </trkpt>
      <trkpt lat="46.26546" lon="6.27666">
        <ele>500.68</ele>
        <time>2021-10-11T09:35:57Z</time>
      </trkpt>
      <trkpt lat="46.26546" lon="6.27693">
        <ele>501.24</ele>
        <time>2021-10-11T09:36:04Z</time>
      </trkpt>
      <trkpt lat="46.26539" lon="6.27727">
        <ele>500.75</ele>
        <time>2021-10-11T09:36:17Z</time>
      </trkpt>
      <trkpt lat="46.26527" lon="6.27765">
        <ele>501.02</ele>
        <time>2021-10-11T09:36:44Z</time>
      </trkpt>
      <trkpt lat="46.26515" lon="6.27796">
        <ele>501.2</ele>
        <time>2021-10-11T09:36:51Z</time>
      </trkpt>
      <trkpt lat="46.26503" lon="6.27824">
        <ele>501.54</ele>
        <time>2021-10-11T09:36:57Z</time>
      </trkpt>
      <trkpt lat="46.26487" lon="6.27842">
        <ele>501.91</ele>
        <time>2021-10-11T09:37:04Z</time>
      </trkpt>
      <trkpt lat="46.26467" lon="6.27848">
        <ele>502.64</ele>
        <time>2021-10-11T09:37:12Z</time>
      </trkpt>
      <trkpt lat="46.26448" lon="6.27858">
        <ele>503</ele>
        <time>2021-10-11T09:37:19Z</time>
      </trkpt>
      <trkpt lat="46.26435" lon="6.2788">
        <ele>503.4</ele>
        <time>2021-10-11T09:37:28Z</time>
      </trkpt>
      <trkpt lat="46.26425" lon="6.27907">
        <ele>503.72</ele>
        <time>2021-10-11T09:37:35Z</time>
      </trkpt>
      <trkpt lat="46.26403" lon="6.27903">
        <ele>504.79</ele>
        <time>2021-10-11T09:38:24Z</time>
      </trkpt>
      <trkpt lat="46.2639" lon="6.2788">
        <ele>504.98</ele>
        <time>2021-10-11T09:38:30Z</time>
      </trkpt>
      <trkpt lat="46.26377" lon="6.27853">
        <ele>505.09</ele>
        <time>2021-10-11T09:38:37Z</time>
      </trkpt>
      <trkpt lat="46.2636" lon="6.27827">
        <ele>505.05</ele>
        <time>2021-10-11T09:38:44Z</time>
      </trkpt>
      <trkpt lat="46.26345" lon="6.27802">
        <ele>505.29</ele>
        <time>2021-10-11T09:38:52Z</time>
      </trkpt>
      <trkpt lat="46.2633" lon="6.27778">
        <ele>505.21</ele>
        <time>2021-10-11T09:39:00Z</time>
      </trkpt>
      <trkpt lat="46.26311" lon="6.27747">
        <ele>505.2</ele>
        <time>2021-10-11T09:39:34Z</time>
      </trkpt>
      <trkpt lat="46.26295" lon="6.27726">
        <ele>505.33</ele>
        <time>2021-10-11T09:39:43Z</time>
      </trkpt>
      <trkpt lat="46.26278" lon="6.27706">
        <ele>505.43</ele>
        <time>2021-10-11T09:39:51Z</time>
      </trkpt>
      <trkpt lat="46.26267" lon="6.27679">
        <ele>505.44</ele>
        <time>2021-10-11T09:40:00Z</time>
      </trkpt>
      <trkpt lat="46.26252" lon="6.27648">
        <ele>504.39</ele>
        <time>2021-10-11T09:40:25Z</time>
      </trkpt>
      <trkpt lat="46.2624" lon="6.27623">
        <ele>504.37</ele>
        <time>2021-10-11T09:40:33Z</time>
      </trkpt>
      <trkpt lat="46.26229" lon="6.27602">
        <ele>504.23</ele>
        <time>2021-10-11T09:40:41Z</time>
      </trkpt>
      <trkpt lat="46.26217" lon="6.27583">
        <ele>504.02</ele>
        <time>2021-10-11T09:40:47Z</time>
      </trkpt>
      <trkpt lat="46.26202" lon="6.27561">
        <ele>503.98</ele>
        <time>2021-10-11T09:40:53Z</time>
      </trkpt>
      <trkpt lat="46.26187" lon="6.27541">
        <ele>503.82</ele>
        <time>2021-10-11T09:40:59Z</time>
      </trkpt>
      <trkpt lat="46.26175" lon="6.27523">
        <ele>503.54</ele>
        <time>2021-10-11T09:41:06Z</time>
      </trkpt>
      <trkpt lat="46.26158" lon="6.27514">
        <ele>503.45</ele>
        <time>2021-10-11T09:41:14Z</time>
      </trkpt>
      <trkpt lat="46.26168" lon="6.27489">
        <ele>503.17</ele>
        <time>2021-10-11T09:41:48Z</time>
      </trkpt>
      <trkpt lat="46.26178" lon="6.27465">
        <ele>503.12</ele>
        <time>2021-10-11T09:41:53Z</time>
      </trkpt>
      <trkpt lat="46.26189" lon="6.27437">
        <ele>503.14</ele>
        <time>2021-10-11T09:41:58Z</time>
      </trkpt>
      <trkpt lat="46.262" lon="6.27412">
        <ele>502.69</ele>
        <time>2021-10-11T09:42:04Z</time>
      </trkpt>
      <trkpt lat="46.26211" lon="6.27386">
        <ele>502</ele>
        <time>2021-10-11T09:42:11Z</time>
      </trkpt>
      <trkpt lat="46.26222" lon="6.2736">
        <ele>501.65</ele>
        <time>2021-10-11T09:42:16Z</time>
      </trkpt>
      <trkpt lat="46.26234" lon="6.27338">
        <ele>501.22</ele>
        <time>2021-10-11T09:42:21Z</time>
      </trkpt>
      <trkpt lat="46.26245" lon="6.27317">
        <ele>500.57</ele>
        <time>2021-10-11T09:42:27Z</time>
      </trkpt>
      <trkpt lat="46.26256" lon="6.27295">
        <ele>500.07</ele>
        <time>2021-10-11T09:42:33Z</time>
      </trkpt>
      <trkpt lat="46.26269" lon="6.27271">
        <ele>499.56</ele>
        <time>2021-10-11T09:42:38Z</time>
      </trkpt>
      <trkpt lat="46.26281" lon="6.27248">
        <ele>499.14</ele>
        <time>2021-10-11T09:42:43Z</time>
      </trkpt>
      <trkpt lat="46.26292" lon="6.27226">
        <ele>498.6</ele>
        <time>2021-10-11T09:42:49Z</time>
      </trkpt>
      <trkpt lat="46.26304" lon="6.27203">
        <ele>498.28</ele>
        <time>2021-10-11T09:42:54Z</time>
      </trkpt>
      <trkpt lat="46.26315" lon="6.27182">
        <ele>497.76</ele>
        <time>2021-10-11T09:43:00Z</time>
      </trkpt>
      <trkpt lat="46.26327" lon="6.2716">
        <ele>497.21</ele>
        <time>2021-10-11T09:43:07Z</time>
      </trkpt>
      <trkpt lat="46.26339" lon="6.27174">
        <ele>496.79</ele>
        <time>2021-10-11T09:44:13Z</time>
      </trkpt>
      <trkpt lat="46.26349" lon="6.27198">
        <ele>496.79</ele>
        <time>2021-10-11T09:44:41Z</time>
      </trkpt>
      <trkpt lat="46.26362" lon="6.27219">
        <ele>496.79</ele>
        <time>2021-10-11T09:45:31Z</time>
      </trkpt>
      <trkpt lat="46.26369" lon="6.27248">
        <ele>496.79</ele>
        <time>2021-10-11T09:46:38Z</time>
      </trkpt>
      <trkpt lat="46.26375" lon="6.27274">
        <ele>496.79</ele>
        <time>2021-10-11T09:46:43Z</time>
      </trkpt>
      <trkpt lat="46.26384" lon="6.27301">
        <ele>496.79</ele>
        <time>2021-10-11T09:46:48Z</time>
      </trkpt>
      <trkpt lat="46.26393" lon="6.27325">
        <ele>496.79</ele>
        <time>2021-10-11T09:46:54Z</time>
      </trkpt>
      <trkpt lat="46.26404" lon="6.27349">
        <ele>496.79</ele>
        <time>2021-10-11T09:46:59Z</time>
      </trkpt>
      <trkpt lat="46.26416" lon="6.2737">
        <ele>496.79</ele>
        <time>2021-10-11T09:47:05Z</time>
      </trkpt>
      <trkpt lat="46.26429" lon="6.27389">
        <ele>496.79</ele>
        <time>2021-10-11T09:47:10Z</time>
      </trkpt>
      <trkpt lat="46.26444" lon="6.27406">
        <ele>496.79</ele>
        <time>2021-10-11T09:47:16Z</time>
      </trkpt>
      <trkpt lat="46.26457" lon="6.27427">
        <ele>496.79</ele>
        <time>2021-10-11T09:47:23Z</time>
      </trkpt>
      <trkpt lat="46.26468" lon="6.27449">
        <ele>496.79</ele>
        <time>2021-10-11T09:47:29Z</time>
      </trkpt>
      <trkpt lat="46.26479" lon="6.27473">
        <ele>496.79</ele>
        <time>2021-10-11T09:47:34Z</time>
      </trkpt>
      <trkpt lat="46.26489" lon="6.27498">
        <ele>496.79</ele>
        <time>2021-10-11T09:47:40Z</time>
      </trkpt>
      <trkpt lat="46.26499" lon="6.27526">
        <ele>496.79</ele>
        <time>2021-10-11T09:47:46Z</time>
      </trkpt>
      <trkpt lat="46.26509" lon="6.27553">
        <ele>496.79</ele>
        <time>2021-10-11T09:47:51Z</time>
      </trkpt>
      <trkpt lat="46.2652" lon="6.27582">
        <ele>496.79</ele>
        <time>2021-10-11T09:47:56Z</time>
      </trkpt>
      <trkpt lat="46.26529" lon="6.27605">
        <ele>496.79</ele>
        <time>2021-10-11T09:48:01Z</time>
      </trkpt>
      <trkpt lat="46.26538" lon="6.27628">
        <ele>496.79</ele>
        <time>2021-10-11T09:48:07Z</time>
      </trkpt>
      <trkpt lat="46.26552" lon="6.27623">
        <ele>501.09</ele>
        <time>2021-10-11T09:48:14Z</time>
      </trkpt>
      <trkpt lat="46.26565" lon="6.27603">
        <ele>500.92</ele>
        <time>2021-10-11T09:48:18Z</time>
      </trkpt>
      <trkpt lat="46.2658" lon="6.27583">
        <ele>500.78</ele>
        <time>2021-10-11T09:48:22Z</time>
      </trkpt>
      <trkpt lat="46.26596" lon="6.27561">
        <ele>500.45</ele>
        <time>2021-10-11T09:48:27Z</time>
      </trkpt>
      <trkpt lat="46.26609" lon="6.2754">
        <ele>500.19</ele>
        <time>2021-10-11T09:48:32Z</time>
      </trkpt>
      <trkpt lat="46.26615" lon="6.27513">
        <ele>499.64</ele>
        <time>2021-10-11T09:48:37Z</time>
      </trkpt>
      <trkpt lat="46.26614" lon="6.27485">
        <ele>498.65</ele>
        <time>2021-10-11T09:48:42Z</time>
      </trkpt>
      <trkpt lat="46.26613" lon="6.27455">
        <ele>497.88</ele>
        <time>2021-10-11T09:48:48Z</time>
      </trkpt>
      <trkpt lat="46.26613" lon="6.27428">
        <ele>497.53</ele>
        <time>2021-10-11T09:48:54Z</time>
      </trkpt>
      <trkpt lat="46.26611" lon="6.27413">
        <ele>496.94</ele>
        <time>2021-10-11T09:49:02Z</time>
      </trkpt>
      <trkpt lat="46.26614" lon="6.2741">
        <ele>497.3</ele>
        <time>2021-10-11T09:49:24Z</time>
      </trkpt>
      <trkpt lat="46.26616" lon="6.27378">
        <ele>497.23</ele>
        <time>2021-10-11T09:49:30Z</time>
      </trkpt>
      <trkpt lat="46.26618" lon="6.27347">
        <ele>496.93</ele>
        <time>2021-10-11T09:49:35Z</time>
      </trkpt>
      <trkpt lat="46.26619" lon="6.27317">
        <ele>496.68</ele>
        <time>2021-10-11T09:49:40Z</time>
      </trkpt>
      <trkpt lat="46.26618" lon="6.27287">
        <ele>496.47</ele>
        <time>2021-10-11T09:49:45Z</time>
      </trkpt>
      <trkpt lat="46.26618" lon="6.27258">
        <ele>496.27</ele>
        <time>2021-10-11T09:49:50Z</time>
      </trkpt>
      <trkpt lat="46.26618" lon="6.27229">
        <ele>495.85</ele>
        <time>2021-10-11T09:49:55Z</time>
      </trkpt>
      <trkpt lat="46.2662" lon="6.27198">
        <ele>495.39</ele>
        <time>2021-10-11T09:50:00Z</time>
      </trkpt>
      <trkpt lat="46.2662" lon="6.27166">
        <ele>494.59</ele>
        <time>2021-10-11T09:50:05Z</time>
      </trkpt>
      <trkpt lat="46.26624" lon="6.27142">
        <ele>494.13</ele>
        <time>2021-10-11T09:50:09Z</time>
      </trkpt>
      <trkpt lat="46.26638" lon="6.27123">
        <ele>493.78</ele>
        <time>2021-10-11T09:50:13Z</time>
      </trkpt>
      <trkpt lat="46.26653" lon="6.27101">
        <ele>493.18</ele>
        <time>2021-10-11T09:50:17Z</time>
      </trkpt>
      <trkpt lat="46.26663" lon="6.27072">
        <ele>492.45</ele>
        <time>2021-10-11T09:50:21Z</time>
      </trkpt>
      <trkpt lat="46.26667" lon="6.2704">
        <ele>491.19</ele>
        <time>2021-10-11T09:50:25Z</time>
      </trkpt>
      <trkpt lat="46.26668" lon="6.27011">
        <ele>489.24</ele>
        <time>2021-10-11T09:50:29Z</time>
      </trkpt>
      <trkpt lat="46.26682" lon="6.27011">
        <ele>485.81</ele>
        <time>2021-10-11T09:50:36Z</time>
      </trkpt>
      <trkpt lat="46.26698" lon="6.27031">
        <ele>484.32</ele>
        <time>2021-10-11T09:50:41Z</time>
      </trkpt>
      <trkpt lat="46.26715" lon="6.27047">
        <ele>483.41</ele>
        <time>2021-10-11T09:50:46Z</time>
      </trkpt>
      <trkpt lat="46.26732" lon="6.27049">
        <ele>482.9</ele>
        <time>2021-10-11T09:50:52Z</time>
      </trkpt>
      <trkpt lat="46.26743" lon="6.27024">
        <ele>482.62</ele>
        <time>2021-10-11T09:50:57Z</time>
      </trkpt>
      <trkpt lat="46.26754" lon="6.26998">
        <ele>481.88</ele>
        <time>2021-10-11T09:51:01Z</time>
      </trkpt>
      <trkpt lat="46.26758" lon="6.26968">
        <ele>480.65</ele>
        <time>2021-10-11T09:51:06Z</time>
      </trkpt>
      <trkpt lat="46.26769" lon="6.26944">
        <ele>480.33</ele>
        <time>2021-10-11T09:51:13Z</time>
      </trkpt>
      <trkpt lat="46.26765" lon="6.26919">
        <ele>480.33</ele>
        <time>2021-10-11T09:51:21Z</time>
      </trkpt>
      <trkpt lat="46.26775" lon="6.26899">
        <ele>480.93</ele>
        <time>2021-10-11T09:51:30Z</time>
      </trkpt>
      <trkpt lat="46.2676" lon="6.26877">
        <ele>480.22</ele>
        <time>2021-10-11T09:51:50Z</time>
      </trkpt>
      <trkpt lat="46.26742" lon="6.26855">
        <ele>480.09</ele>
        <time>2021-10-11T09:51:59Z</time>
      </trkpt>
      <trkpt lat="46.26726" lon="6.26834">
        <ele>480.15</ele>
        <time>2021-10-11T09:52:05Z</time>
      </trkpt>
      <trkpt lat="46.26714" lon="6.26811">
        <ele>479.79</ele>
        <time>2021-10-11T09:52:12Z</time>
      </trkpt>
      <trkpt lat="46.26703" lon="6.26782">
        <ele>478.78</ele>
        <time>2021-10-11T09:52:21Z</time>
      </trkpt>
      <trkpt lat="46.26693" lon="6.26751">
        <ele>478.61</ele>
        <time>2021-10-11T09:52:28Z</time>
      </trkpt>
      <trkpt lat="46.26684" lon="6.26719">
        <ele>478.63</ele>
        <time>2021-10-11T09:52:35Z</time>
      </trkpt>
      <trkpt lat="46.26678" lon="6.26692">
        <ele>478.53</ele>
        <time>2021-10-11T09:52:41Z</time>
      </trkpt>
      <trkpt lat="46.26669" lon="6.26664">
        <ele>478.43</ele>
        <time>2021-10-11T09:52:48Z</time>
      </trkpt>
      <trkpt lat="46.2666" lon="6.26633">
        <ele>478.19</ele>
        <time>2021-10-11T09:52:55Z</time>
      </trkpt>
      <trkpt lat="46.26652" lon="6.26603">
        <ele>477.89</ele>
        <time>2021-10-11T09:53:03Z</time>
      </trkpt>
      <trkpt lat="46.26644" lon="6.26577">
        <ele>477.9</ele>
        <time>2021-10-11T09:53:10Z</time>
      </trkpt>
      <trkpt lat="46.26635" lon="6.26546">
        <ele>477.97</ele>
        <time>2021-10-11T09:53:17Z</time>
      </trkpt>
      <trkpt lat="46.26626" lon="6.26514">
        <ele>477.89</ele>
        <time>2021-10-11T09:53:24Z</time>
      </trkpt>
      <trkpt lat="46.26622" lon="6.26479">
        <ele>477.72</ele>
        <time>2021-10-11T09:53:31Z</time>
      </trkpt>
      <trkpt lat="46.26622" lon="6.26444">
        <ele>477.33</ele>
        <time>2021-10-11T09:53:40Z</time>
      </trkpt>
      <trkpt lat="46.26622" lon="6.26411">
        <ele>477.11</ele>
        <time>2021-10-11T09:53:47Z</time>
      </trkpt>
      <trkpt lat="46.26627" lon="6.26379">
        <ele>476.93</ele>
        <time>2021-10-11T09:53:54Z</time>
      </trkpt>
      <trkpt lat="46.26633" lon="6.26344">
        <ele>476.44</ele>
        <time>2021-10-11T09:54:02Z</time>
      </trkpt>
      <trkpt lat="46.26641" lon="6.26311">
        <ele>476.14</ele>
        <time>2021-10-11T09:54:11Z</time>
      </trkpt>
      <trkpt lat="46.26646" lon="6.26284">
        <ele>476.75</ele>
        <time>2021-10-11T09:54:18Z</time>
      </trkpt>
      <trkpt lat="46.26658" lon="6.2626">
        <ele>476.98</ele>
        <time>2021-10-11T09:54:26Z</time>
      </trkpt>
      <trkpt lat="46.26667" lon="6.26235">
        <ele>476.9</ele>
        <time>2021-10-11T09:54:34Z</time>
      </trkpt>
      <trkpt lat="46.26676" lon="6.26208">
        <ele>476.7</ele>
        <time>2021-10-11T09:54:42Z</time>
      </trkpt>
      <trkpt lat="46.26679" lon="6.26181">
        <ele>477.04</ele>
        <time>2021-10-11T09:54:48Z</time>
      </trkpt>
      <trkpt lat="46.26682" lon="6.26152">
        <ele>477.14</ele>
        <time>2021-10-11T09:54:55Z</time>
      </trkpt>
      <trkpt lat="46.2668" lon="6.26124">
        <ele>476.85</ele>
        <time>2021-10-11T09:55:04Z</time>
      </trkpt>
      <trkpt lat="46.26682" lon="6.26096">
        <ele>476.58</ele>
        <time>2021-10-11T09:55:12Z</time>
      </trkpt>
      <trkpt lat="46.26687" lon="6.26067">
        <ele>476.52</ele>
        <time>2021-10-11T09:55:20Z</time>
      </trkpt>
      <trkpt lat="46.26693" lon="6.2604">
        <ele>476.44</ele>
        <time>2021-10-11T09:55:28Z</time>
      </trkpt>
      <trkpt lat="46.26698" lon="6.26011">
        <ele>476.8</ele>
        <time>2021-10-11T09:55:44Z</time>
      </trkpt>
      <trkpt lat="46.26704" lon="6.25983">
        <ele>476.35</ele>
        <time>2021-10-11T09:55:51Z</time>
      </trkpt>
      <trkpt lat="46.26712" lon="6.25957">
        <ele>475.84</ele>
        <time>2021-10-11T09:55:59Z</time>
      </trkpt>
      <trkpt lat="46.26712" lon="6.25932">
        <ele>473.93</ele>
        <time>2021-10-11T09:56:35Z</time>
      </trkpt>
      <trkpt lat="46.267" lon="6.25908">
        <ele>474.68</ele>
        <time>2021-10-11T09:56:58Z</time>
      </trkpt>
      <trkpt lat="46.26695" lon="6.25879">
        <ele>475.62</ele>
        <time>2021-10-11T09:57:06Z</time>
      </trkpt>
      <trkpt lat="46.26697" lon="6.25848">
        <ele>475.98</ele>
        <time>2021-10-11T09:57:13Z</time>
      </trkpt>
      <trkpt lat="46.26699" lon="6.2582">
        <ele>475.94</ele>
        <time>2021-10-11T09:57:22Z</time>
      </trkpt>
      <trkpt lat="46.26701" lon="6.25792">
        <ele>475.44</ele>
        <time>2021-10-11T09:57:27Z</time>
      </trkpt>
      <trkpt lat="46.26702" lon="6.25765">
        <ele>474.62</ele>
        <time>2021-10-11T09:57:33Z</time>
      </trkpt>
      <trkpt lat="46.26703" lon="6.25739">
        <ele>475.16</ele>
        <time>2021-10-11T09:57:43Z</time>
      </trkpt>
      <trkpt lat="46.26722" lon="6.25743">
        <ele>476.1</ele>
        <time>2021-10-11T09:57:51Z</time>
      </trkpt>
      <trkpt lat="46.2674" lon="6.25756">
        <ele>476.25</ele>
        <time>2021-10-11T09:58:00Z</time>
      </trkpt>
      <trkpt lat="46.26758" lon="6.25769">
        <ele>476.18</ele>
        <time>2021-10-11T09:58:08Z</time>
      </trkpt>
      <trkpt lat="46.26778" lon="6.25782">
        <ele>476.06</ele>
        <time>2021-10-11T09:58:16Z</time>
      </trkpt>
      <trkpt lat="46.26797" lon="6.25795">
        <ele>476.28</ele>
        <time>2021-10-11T09:58:23Z</time>
      </trkpt>
      <trkpt lat="46.26815" lon="6.25806">
        <ele>476.28</ele>
        <time>2021-10-11T09:58:31Z</time>
      </trkpt>
      <trkpt lat="46.26831" lon="6.25801">
        <ele>476.28</ele>
        <time>2021-10-11T09:58:41Z</time>
      </trkpt>
      <trkpt lat="46.26841" lon="6.25778">
        <ele>476.28</ele>
        <time>2021-10-11T09:58:50Z</time>
      </trkpt>
      <trkpt lat="46.26846" lon="6.25752">
        <ele>476.28</ele>
        <time>2021-10-11T09:58:56Z</time>
      </trkpt>
      <trkpt lat="46.26834" lon="6.25759">
        <ele>476.28</ele>
        <time>2021-10-11T09:59:23Z</time>
      </trkpt>
      <trkpt lat="46.26827" lon="6.25783">
        <ele>476.28</ele>
        <time>2021-10-11T09:59:41Z</time>
      </trkpt>
      <trkpt lat="46.26826" lon="6.2579">
        <ele>476.28</ele>
        <time>2021-10-11T09:59:57Z</time>
      </trkpt>
    </trkseg>
  </trk>
</gpx>